Observation data for Umbarger on 03/01/2021      Previous  Date  Next       Current Mesonet Observations  Soil Data  Daily Summary Page  Observations in Plain Language
KUM1 010600Z 04007KT M03/M12 A3021 RMK A01 T10261124  RH  047%=      5-min Rain = 0
KUM1 010601Z 04007KT M03/M12 A3021 RMK A01 T10271124  RH  047%=      5-min Rain = 0
KUM1 010602Z 03007KT M03/M13 A3021 RMK A01 T10281125  RH  047%=      5-min Rain = 0
KUM1 010603Z 03007KT M03/M13 A3021 RMK A01 T10291126  RH  047%=      5-min Rain = 0
KUM1 010604Z 03006KT M03/M13 A3021 RMK A01 T10291127  RH  047%=      5-min Rain = 0
KUM1 010605Z 04006KT M03/M13 A3021 RMK A01 T10301128  RH  047%=      5-min Rain = 0
KUM1 010606Z 04006KT M03/M13 A3021 RMK A01 T10311130  RH  046%=      5-min Rain = 0
KUM1 010607Z 05006KT M03/M13 A3021 RMK A01 T10311128  RH  047%=      5-min Rain = 0
KUM1 010608Z 05006KT M03/M13 A3021 RMK A01 T10311125  RH  048%=      5-min Rain = 0
KUM1 010609Z 05006KT M03/M12 A3021 RMK A01 T10311123  RH  049%=      5-min Rain = 0
KUM1 010610Z 06006KT M03/M12 A3021 RMK A01 T10301122  RH  049%=      5-min Rain = 0
KUM1 010611Z 06006KT M03/M12 A3021 RMK A01 T10291120  RH  049%=      5-min Rain = 0
KUM1 010612Z 06006KT M03/M12 A3021 RMK A01 T10291120  RH  050%=      5-min Rain = 0
KUM1 010613Z 05006KT M03/M12 A3021 RMK A01 T10291119  RH  050%=      5-min Rain = 0
KUM1 010614Z 05006KT M03/M12 A3021 RMK A01 T10281118  RH  050%=      5-min Rain = 0
KUM1 010615Z 05006KT M03/M12 A3021 RMK A01 T10281117  RH  050%=      5-min Rain = 0
KUM1 010616Z 04007KT M03/M12 A3021 RMK A01 T10281117  RH  050%=      5-min Rain = 0
KUM1 010617Z 04007KT M03/M12 A3021 RMK A01 T10281118  RH  050%=      5-min Rain = 0
KUM1 010618Z 04008KT M03/M12 A3021 RMK A01 T10281121  RH  049%=      5-min Rain = 0
KUM1 010619Z 04008KT M03/M12 A302 RMK A01 T10301124  RH  048%=      5-min Rain = 0
KUM1 010620Z 04008KT M03/M13 A302 RMK A01 T10321126  RH  048%=      5-min Rain = 0
KUM1 010621Z 04008KT M03/M13 A302 RMK A01 T10341127  RH  048%=      5-min Rain = 0
KUM1 010622Z 04008KT M03/M13 A302 RMK A01 T10341128  RH  048%=      5-min Rain = 0
KUM1 010623Z 04008KT M04/M13 A302 RMK A01 T10351128  RH  048%=      5-min Rain = 0
KUM1 010624Z 04008KT M04/M13 A302 RMK A01 T10351129  RH  048%=      5-min Rain = 0
KUM1 010625Z 04008KT M04/M13 A302 RMK A01 T10351130  RH  048%=      5-min Rain = 0
KUM1 010626Z 04008KT M04/M13 A302 RMK A01 T10351130  RH  048%=      5-min Rain = 0
KUM1 010627Z 04008KT M04/M13 A302 RMK A01 T10351130  RH  048%=      5-min Rain = 0
KUM1 010628Z 04008KT M04/M13 A302 RMK A01 T10351131  RH  048%=      5-min Rain = 0
KUM1 010629Z 04008KT M04/M13 A302 RMK A01 T10361131  RH  048%=      5-min Rain = 0
KUM1 010630Z 03008KT M04/M13 A302 RMK A01 T10361131  RH  048%=      5-min Rain = 0
KUM1 010631Z 03008KT M04/M13 A302 RMK A01 T10361130  RH  048%=      5-min Rain = 0
KUM1 010632Z 03009KT M04/M13 A302 RMK A01 T10361130  RH  048%=      5-min Rain = 0
KUM1 010633Z 03009KT M04/M13 A302 RMK A01 T10361128  RH  049%=      5-min Rain = 0
KUM1 010634Z 03009KT M04/M13 A302 RMK A01 T10351128  RH  049%=      5-min Rain = 0
KUM1 010635Z 02010KT M03/M13 A302 RMK A01 T10341127  RH  049%=      5-min Rain = 0
KUM1 010636Z 02010KT M03/M13 A302 RMK A01 T10331125  RH  049%=      5-min Rain = 0
KUM1 010637Z 02010KT M03/M13 A302 RMK A01 T10321125  RH  048%=      5-min Rain = 0
KUM1 010638Z 03009KT M03/M13 A302 RMK A01 T10311125  RH  048%=      5-min Rain = 0
KUM1 010639Z 02009KT M03/M13 A302 RMK A01 T10311125  RH  048%=      5-min Rain = 0
KUM1 010640Z 02008KT M03/M13 A302 RMK A01 T10311126  RH  048%=      5-min Rain = 0
KUM1 010641Z 02007KT M03/M13 A302 RMK A01 T10311126  RH  048%=      5-min Rain = 0
KUM1 010642Z 02006KT M03/M13 A302 RMK A01 T10321127  RH  048%=      5-min Rain = 0
KUM1 010643Z 02006KT M03/M13 A302 RMK A01 T10331128  RH  048%=      5-min Rain = 0
KUM1 010644Z 03006KT M03/M13 A302 RMK A01 T10341129  RH  047%=      5-min Rain = 0
KUM1 010645Z 03006KT M03/M13 A302 RMK A01 T10341130  RH  048%=      5-min Rain = 0
KUM1 010646Z 02005KT M04/M13 A302 RMK A01 T10351130  RH  048%=      5-min Rain = 0
KUM1 010647Z 02005KT M04/M13 A302 RMK A01 T10351130  RH  048%=      5-min Rain = 0
KUM1 010648Z 02005KT M04/M13 A302 RMK A01 T10361131  RH  048%=      5-min Rain = 0
KUM1 010649Z 02004KT M04/M13 A302 RMK A01 T10371132  RH  047%=      5-min Rain = 0
KUM1 010650Z 02004KT M04/M13 A302 RMK A01 T10381134  RH  047%=      5-min Rain = 0
KUM1 010651Z 02004KT M04/M13 A302 RMK A01 T10391134  RH  048%=      5-min Rain = 0
KUM1 010652Z 03004KT M04/M13 A302 RMK A01 T10391133  RH  048%=      5-min Rain = 0
KUM1 010653Z 03005KT M04/M13 A302 RMK A01 T10401132  RH  049%=      5-min Rain = 0
KUM1 010654Z 03004KT M04/M13 A302 RMK A01 T10401130  RH  050%=      5-min Rain = 0
KUM1 010655Z 04004KT M04/M13 A302 RMK A01 T10411130  RH  050%=      5-min Rain = 0
KUM1 010656Z 04004KT M04/M13 A302 RMK A01 T10411130  RH  050%=      5-min Rain = 0
KUM1 010657Z 04004KT M04/M13 A302 RMK A01 T10421130  RH  050%=      5-min Rain = 0
KUM1 010658Z 04004KT M04/M13 A302 RMK A01 T10421128  RH  051%=      5-min Rain = 0
KUM1 010659Z 04004KT M04/M13 A302 RMK A01 T10421126  RH  052%=      5-min Rain = 0
KUM1 010700Z 04004KT M04/M12 A302 RMK A01 T10401124  RH  052%=      5-min Rain = 0
KUM1 010701Z 04004KT M04/M12 A302 RMK A01 T10391123  RH  052%=      5-min Rain = 0
KUM1 010702Z 04004KT M04/M12 A302 RMK A01 T10381123  RH  052%=      5-min Rain = 0
KUM1 010703Z 04004KT M04/M12 A302 RMK A01 T10371123  RH  051%=      5-min Rain = 0
KUM1 010704Z 04005KT M04/M12 A302 RMK A01 T10361122  RH  051%=      5-min Rain = 0
KUM1 010705Z 04005KT M04/M12 A3021 RMK A01 T10351122  RH  051%=      5-min Rain = 0
KUM1 010706Z 04005KT M03/M12 A3021 RMK A01 T10341123  RH  050%=      5-min Rain = 0
KUM1 010707Z 04004KT M03/M12 A3021 RMK A01 T10341123  RH  050%=      5-min Rain = 0
KUM1 010708Z 04004KT M03/M12 A3021 RMK A01 T10341124  RH  050%=      5-min Rain = 0
KUM1 010709Z 04004KT M03/M12 A3021 RMK A01 T10341124  RH  050%=      5-min Rain = 0
KUM1 010710Z 05004KT M03/M12 A3021 RMK A01 T10331124  RH  050%=      5-min Rain = 0
KUM1 010711Z 05005KT M03/M12 A3021 RMK A01 T10341124  RH  050%=      5-min Rain = 0
KUM1 010712Z 04005KT M03/M12 A3021 RMK A01 T10341124  RH  050%=      5-min Rain = 0
KUM1 010713Z 04005KT M03/M12 A3021 RMK A01 T10341124  RH  050%=      5-min Rain = 0
KUM1 010714Z 05005KT M03/M12 A3021 RMK A01 T10341123  RH  050%=      5-min Rain = 0
KUM1 010715Z 05005KT M03/M12 A302 RMK A01 T10331121  RH  051%=      5-min Rain = 0
KUM1 010716Z 05006KT M03/M12 A302 RMK A01 T10321120  RH  051%=      5-min Rain = 0
KUM1 010717Z 04006KT M03/M12 A302 RMK A01 T10331122  RH  050%=      5-min Rain = 0
KUM1 010718Z 04006KT M03/M12 A302 RMK A01 T10331121  RH  050%=      5-min Rain = 0
KUM1 010719Z 04006KT M03/M12 A302 RMK A01 T10331123  RH  050%=      5-min Rain = 0
KUM1 010720Z 04006KT M03/M13 A302 RMK A01 T10341125  RH  049%=      5-min Rain = 0
KUM1 010721Z 04006KT M04/M13 A302 RMK A01 T10351126  RH  049%=      5-min Rain = 0
KUM1 010722Z 05006KT M04/M13 A3021 RMK A01 T10361126  RH  050%=      5-min Rain = 0
KUM1 010723Z 05006KT M04/M13 A3021 RMK A01 T10361127  RH  049%=      5-min Rain = 0
KUM1 010724Z 04007KT M04/M13 A3021 RMK A01 T10371129  RH  049%=      5-min Rain = 0
KUM1 010725Z 04007KT M04/M13 A3021 RMK A01 T10381129  RH  049%=      5-min Rain = 0
KUM1 010726Z 04006KT M04/M13 A3021 RMK A01 T10381127  RH  050%=      5-min Rain = 0
KUM1 010727Z 04006KT M04/M13 A3021 RMK A01 T10381126  RH  050%=      5-min Rain = 0
KUM1 010728Z 04006KT M04/M13 A3021 RMK A01 T10371125  RH  051%=      5-min Rain = 0
KUM1 010729Z 04007KT M04/M12 A3021 RMK A01 T10381124  RH  051%=      5-min Rain = 0
KUM1 010730Z 04007KT M04/M12 A3021 RMK A01 T10381123  RH  052%=      5-min Rain = 0
KUM1 010731Z 04007KT M04/M12 A3021 RMK A01 T10381122  RH  052%=      5-min Rain = 0
KUM1 010732Z 04007KT M04/M12 A3021 RMK A01 T10371122  RH  052%=      5-min Rain = 0
KUM1 010733Z 04007KT M04/M12 A3021 RMK A01 T10371121  RH  052%=      5-min Rain = 0
KUM1 010734Z 04006KT M04/M12 A3021 RMK A01 T10371122  RH  052%=      5-min Rain = 0
KUM1 010735Z 04007KT M04/M12 A3021 RMK A01 T10361122  RH  052%=      5-min Rain = 0
KUM1 010736Z 04006KT M04/M12 A3021 RMK A01 T10361122  RH  051%=      5-min Rain = 0
KUM1 010737Z 04007KT M04/M12 A3021 RMK A01 T10361121  RH  052%=      5-min Rain = 0
KUM1 010738Z 04007KT M04/M12 A3021 RMK A01 T10351121  RH  052%=      5-min Rain = 0
KUM1 010739Z 04007KT M04/M12 A3021 RMK A01 T10351120  RH  052%=      5-min Rain = 0
KUM1 010740Z 04007KT M04/M12 A3021 RMK A01 T10351121  RH  051%=      5-min Rain = 0
KUM1 010741Z 03007KT M04/M12 A3021 RMK A01 T10351122  RH  051%=      5-min Rain = 0
KUM1 010742Z 03007KT M04/M12 A3021 RMK A01 T10351124  RH  050%=      5-min Rain = 0
KUM1 010743Z 03007KT M04/M13 A3021 RMK A01 T10361126  RH  050%=      5-min Rain = 0
KUM1 010744Z 03007KT M04/M13 A3021 RMK A01 T10371127  RH  050%=      5-min Rain = 0
KUM1 010745Z 03007KT M04/M13 A3021 RMK A01 T10381127  RH  050%=      5-min Rain = 0
KUM1 010746Z 03007KT M04/M13 A3021 RMK A01 T10381127  RH  050%=      5-min Rain = 0
KUM1 010747Z 03007KT M04/M13 A3021 RMK A01 T10381126  RH  051%=      5-min Rain = 0
KUM1 010748Z 04007KT M04/M13 A3021 RMK A01 T10381125  RH  051%=      5-min Rain = 0
KUM1 010749Z 04008KT M04/M12 A3021 RMK A01 T10371123  RH  051%=      5-min Rain = 0
KUM1 010750Z 04008KT M04/M12 A3021 RMK A01 T10361121  RH  052%=      5-min Rain = 0
KUM1 010751Z 05008KT M03/M12 A3021 RMK A01 T10341119  RH  052%=      5-min Rain = 0
KUM1 010752Z 05007KT M03/M12 A3021 RMK A01 T10331115  RH  053%=      5-min Rain = 0
KUM1 010753Z 05007KT M03/M11 A3021 RMK A01 T10311113  RH  053%=      5-min Rain = 0
KUM1 010754Z 05007KT M03/M11 A3021 RMK A01 T10311113  RH  053%=      5-min Rain = 0
KUM1 010755Z 05007KT M03/M11 A3021 RMK A01 T10311112  RH  053%=      5-min Rain = 0
KUM1 010756Z 05007KT M03/M11 A3021 RMK A01 T10311112  RH  054%=      5-min Rain = 0
KUM1 010757Z 05008KT M03/M11 A3021 RMK A01 T10301110  RH  054%=      5-min Rain = 0
KUM1 010758Z 05008KT M03/M11 A3021 RMK A01 T10291109  RH  054%=      5-min Rain = 0
KUM1 010759Z 05008KT M03/M11 A3022 RMK A01 T10281109  RH  054%=      5-min Rain = 0
KUM1 010800Z 05008KT M03/M11 A3022 RMK A01 T10271110  RH  053%=      5-min Rain = 0
KUM1 010801Z 05008KT M03/M11 A3022 RMK A01 T10271110  RH  053%=      5-min Rain = 0
KUM1 010802Z 06007KT M03/M11 A3022 RMK A01 T10271111  RH  053%=      5-min Rain = 0
KUM1 010803Z 06007KT M03/M11 A3022 RMK A01 T10281111  RH  053%=      5-min Rain = 0
KUM1 010804Z 06007KT M03/M11 A3022 RMK A01 T10291111  RH  053%=      5-min Rain = 0
KUM1 010805Z 06007KT M03/M11 A3022 RMK A01 T10301111  RH  054%=      5-min Rain = 0
KUM1 010806Z 06007KT M03/M11 A3022 RMK A01 T10311110  RH  054%=      5-min Rain = 0
KUM1 010807Z 06007KT M03/M11 A3022 RMK A01 T10311110  RH  055%=      5-min Rain = 0
KUM1 010808Z 06007KT M03/M11 A3023 RMK A01 T10321109  RH  055%=      5-min Rain = 0
KUM1 010809Z 06007KT M03/M11 A3023 RMK A01 T10321109  RH  055%=      5-min Rain = 0
KUM1 010810Z 06007KT M03/M11 A3023 RMK A01 T10331110  RH  055%=      5-min Rain = 0
KUM1 010811Z 06006KT M03/M11 A3023 RMK A01 T10331109  RH  056%=      5-min Rain = 0
KUM1 010812Z 06006KT M03/M11 A3023 RMK A01 T10331109  RH  056%=      5-min Rain = 0
KUM1 010813Z 06006KT M03/M11 A3023 RMK A01 T10331109  RH  056%=      5-min Rain = 0
KUM1 010814Z 07006KT M03/M11 A3023 RMK A01 T10331108  RH  056%=      5-min Rain = 0
KUM1 010815Z 07005KT M03/M11 A3023 RMK A01 T10321107  RH  056%=      5-min Rain = 0
KUM1 010816Z 07005KT M03/M11 A3024 RMK A01 T10321107  RH  056%=      5-min Rain = 0
KUM1 010817Z 07004KT M03/M11 A3024 RMK A01 T10311105  RH  056%=      5-min Rain = 0
KUM1 010818Z 08005KT M03/M10 A3024 RMK A01 T10301104  RH  057%=      5-min Rain = 0
KUM1 010819Z 07005KT M03/M10 A3024 RMK A01 T10301103  RH  057%=      5-min Rain = 0
KUM1 010820Z 08005KT M03/M10 A3024 RMK A01 T10291102  RH  057%=      5-min Rain = 0
KUM1 010821Z 07005KT M03/M10 A3024 RMK A01 T10281101  RH  057%=      5-min Rain = 0
KUM1 010822Z 07005KT M03/M10 A3024 RMK A01 T10281101  RH  057%=      5-min Rain = 0
KUM1 010823Z 07005KT M03/M10 A3024 RMK A01 T10281101  RH  057%=      5-min Rain = 0
KUM1 010824Z 07005KT M03/M10 A3024 RMK A01 T10281101  RH  057%=      5-min Rain = 0
KUM1 010825Z 07004KT M03/M10 A3024 RMK A01 T10281102  RH  057%=      5-min Rain = 0
KUM1 010826Z 06005KT M03/M10 A3024 RMK A01 T10281102  RH  057%=      5-min Rain = 0
KUM1 010827Z 06005KT M03/M10 A3024 RMK A01 T10281103  RH  056%=      5-min Rain = 0
KUM1 010828Z 06005KT M03/M10 A3024 RMK A01 T10281103  RH  056%=      5-min Rain = 0
KUM1 010829Z 06005KT M03/M10 A3024 RMK A01 T10281103  RH  056%=      5-min Rain = 0
KUM1 010830Z 06005KT M03/M10 A3023 RMK A01 T10281103  RH  056%=      5-min Rain = 0
KUM1 010831Z 06005KT M03/M10 A3023 RMK A01 T10281103  RH  056%=      5-min Rain = 0
KUM1 010832Z 06004KT M03/M10 A3023 RMK A01 T10281103  RH  056%=      5-min Rain = 0
KUM1 010833Z 06004KT M03/M10 A3023 RMK A01 T10281103  RH  056%=      5-min Rain = 0
KUM1 010834Z 06004KT M03/M10 A3023 RMK A01 T10281102  RH  057%=      5-min Rain = 0
KUM1 010835Z 06005KT M03/M10 A3023 RMK A01 T10281103  RH  056%=      5-min Rain = 0
KUM1 010836Z 06005KT M03/M10 A3023 RMK A01 T10271103  RH  056%=      5-min Rain = 0
KUM1 010837Z 05006KT M03/M10 A3023 RMK A01 T10261102  RH  056%=      5-min Rain = 0
KUM1 010838Z 05007KT M02/M10 A3023 RMK A01 T10241101  RH  056%=      5-min Rain = 0
KUM1 010839Z 05006KT M02/M10 A3023 RMK A01 T10231101  RH  055%=      5-min Rain = 0
KUM1 010840Z 05007KT M02/M10 A3023 RMK A01 T10221101  RH  055%=      5-min Rain = 0
KUM1 010841Z 05007KT M02/M10 A3023 RMK A01 T10211101  RH  054%=      5-min Rain = 0
KUM1 010842Z 05007KT M02/M10 A3023 RMK A01 T10211101  RH  054%=      5-min Rain = 0
KUM1 010843Z 05007KT M02/M10 A3023 RMK A01 T10211102  RH  054%=      5-min Rain = 0
KUM1 010844Z 05007KT M02/M10 A3023 RMK A01 T10201101  RH  054%=      5-min Rain = 0
KUM1 010845Z 05007KT M02/M10 A3023 RMK A01 T10201101  RH  054%=      5-min Rain = 0
KUM1 010846Z 05007KT M02/M10 A3023 RMK A01 T10191101  RH  054%=      5-min Rain = 0
KUM1 010847Z 05007KT M02/M10 A3023 RMK A01 T10191101  RH  054%=      5-min Rain = 0
KUM1 010848Z 05007KT M02/M10 A3022 RMK A01 T10191101  RH  054%=      5-min Rain = 0
KUM1 010849Z 05007KT M02/M10 A3023 RMK A01 T10191102  RH  053%=      5-min Rain = 0
KUM1 010850Z 05007KT M02/M10 A3023 RMK A01 T10201102  RH  053%=      5-min Rain = 0
KUM1 010851Z 05007KT M02/M10 A3022 RMK A01 T10211103  RH  053%=      5-min Rain = 0
KUM1 010852Z 05007KT M02/M10 A3022 RMK A01 T10211103  RH  053%=      5-min Rain = 0
KUM1 010853Z 05007KT M02/M10 A3022 RMK A01 T10211102  RH  054%=      5-min Rain = 0
KUM1 010854Z 05007KT M02/M10 A3022 RMK A01 T10211102  RH  054%=      5-min Rain = 0
KUM1 010855Z 05007KT M02/M10 A3022 RMK A01 T10211103  RH  053%=      5-min Rain = 0
KUM1 010856Z 05006KT M02/M10 A3022 RMK A01 T10211103  RH  054%=      5-min Rain = 0
KUM1 010857Z 05006KT M02/M10 A3022 RMK A01 T10221104  RH  053%=      5-min Rain = 0
KUM1 010858Z 04006KT M02/M11 A3022 RMK A01 T10231105  RH  053%=      5-min Rain = 0
KUM1 010859Z 04006KT M02/M11 A3022 RMK A01 T10231105  RH  053%=      5-min Rain = 0
KUM1 010900Z 04006KT M02/M11 A3022 RMK A01 T10241105  RH  054%=      5-min Rain = 0
KUM1 010901Z 04006KT M02/M11 A3022 RMK A01 T10241105  RH  054%=      5-min Rain = 0
KUM1 010902Z 04006KT M02/M11 A3022 RMK A01 T10241105  RH  054%=      5-min Rain = 0
KUM1 010903Z 04005KT M02/M11 A3022 RMK A01 T10241105  RH  054%=      5-min Rain = 0
KUM1 010904Z 04005KT M02/M11 A3022 RMK A01 T10241106  RH  054%=      5-min Rain = 0
KUM1 010905Z 03005KT M03/M11 A3022 RMK A01 T10251106  RH  054%=      5-min Rain = 0
KUM1 010906Z 03005KT M03/M11 A3022 RMK A01 T10251106  RH  054%=      5-min Rain = 0
KUM1 010907Z 03005KT M03/M11 A3022 RMK A01 T10251107  RH  054%=      5-min Rain = 0
KUM1 010908Z 04004KT M03/M11 A3022 RMK A01 T10261108  RH  054%=      5-min Rain = 0
KUM1 010909Z 04004KT M03/M11 A3022 RMK A01 T10261107  RH  054%=      5-min Rain = 0
KUM1 010910Z 04004KT M03/M11 A3022 RMK A01 T10271106  RH  054%=      5-min Rain = 0
KUM1 010911Z 04005KT M03/M11 A3022 RMK A01 T10271105  RH  055%=      5-min Rain = 0
KUM1 010912Z 04005KT M03/M11 A3022 RMK A01 T10271106  RH  055%=      5-min Rain = 0
KUM1 010913Z 05005KT M03/M11 A3022 RMK A01 T10271107  RH  054%=      5-min Rain = 0
KUM1 010914Z 05004KT M03/M11 A3022 RMK A01 T10271107  RH  054%=      5-min Rain = 0
KUM1 010915Z 05004KT M03/M11 A3022 RMK A01 T10271106  RH  055%=      5-min Rain = 0
KUM1 010916Z 05005KT M03/M10 A3022 RMK A01 T10271104  RH  055%=      5-min Rain = 0
KUM1 010917Z 04005KT M03/M10 A3022 RMK A01 T10271103  RH  056%=      5-min Rain = 0
KUM1 010918Z 04006KT M03/M10 A3022 RMK A01 T10261102  RH  056%=      5-min Rain = 0
KUM1 010919Z 04006KT M03/M10 A3022 RMK A01 T10261103  RH  055%=      5-min Rain = 0
KUM1 010920Z 04007KT M03/M10 A3022 RMK A01 T10271104  RH  055%=      5-min Rain = 0
KUM1 010921Z 04006KT M03/M10 A3022 RMK A01 T10271104  RH  055%=      5-min Rain = 0
KUM1 010922Z 03006KT M03/M10 A3022 RMK A01 T10261104  RH  055%=      5-min Rain = 0
KUM1 010923Z 03006KT M03/M10 A3022 RMK A01 T10261104  RH  055%=      5-min Rain = 0
KUM1 010924Z 03006KT M03/M10 A3022 RMK A01 T10261104  RH  055%=      5-min Rain = 0
KUM1 010925Z 03006KT M03/M10 A3022 RMK A01 T10261104  RH  055%=      5-min Rain = 0
KUM1 010926Z 03006KT M03/M10 A3022 RMK A01 T10261104  RH  055%=      5-min Rain = 0
KUM1 010927Z 02005KT M03/M10 A3022 RMK A01 T10251104  RH  054%=      5-min Rain = 0
KUM1 010928Z 02005KT M03/M11 A3022 RMK A01 T10251105  RH  054%=      5-min Rain = 0
KUM1 010929Z 02006KT M03/M11 A3022 RMK A01 T10251105  RH  054%=      5-min Rain = 0
KUM1 010930Z 02006KT M03/M11 A3022 RMK A01 T10251105  RH  054%=      5-min Rain = 0
KUM1 010931Z 02007KT M03/M11 A3022 RMK A01 T10251105  RH  054%=      5-min Rain = 0
KUM1 010932Z 02007KT M03/M10 A3021 RMK A01 T10251104  RH  054%=      5-min Rain = 0
KUM1 010933Z 02008KT M03/M10 A3021 RMK A01 T10251104  RH  055%=      5-min Rain = 0
KUM1 010934Z 02008KT M02/M10 A3021 RMK A01 T10241103  RH  055%=      5-min Rain = 0
KUM1 010935Z 02008KT M02/M10 A3021 RMK A01 T10231102  RH  055%=      5-min Rain = 0
KUM1 010936Z 02008KT M02/M10 A3021 RMK A01 T10231102  RH  055%=      5-min Rain = 0
KUM1 010937Z 02008KT M02/M10 A3022 RMK A01 T10221101  RH  055%=      5-min Rain = 0
KUM1 010938Z 02008KT M02/M10 A3022 RMK A01 T10221101  RH  055%=      5-min Rain = 0
KUM1 010939Z 02008KT M02/M10 A3022 RMK A01 T10211101  RH  055%=      5-min Rain = 0
KUM1 010940Z 02008KT M02/M10 A3022 RMK A01 T10211101  RH  054%=      5-min Rain = 0
KUM1 010941Z 02008KT M02/M10 A3021 RMK A01 T10201100  RH  054%=      5-min Rain = 0
KUM1 010942Z 02008KT M02/M10 A3021 RMK A01 T10201100  RH  054%=      5-min Rain = 0
KUM1 010943Z 02009KT M02/M10 A3021 RMK A01 T10201100  RH  054%=      5-min Rain = 0
KUM1 010944Z 02009KT M02/M10 A3021 RMK A01 T10191100  RH  054%=      5-min Rain = 0
KUM1 010945Z 02009KT M02/M10 A3021 RMK A01 T10181100  RH  054%=      5-min Rain = 0
KUM1 010946Z 02010KT M02/M10 A3021 RMK A01 T10191100  RH  054%=      5-min Rain = 0
KUM1 010947Z 01010KT M02/M10 A302 RMK A01 T10181100  RH  054%=      5-min Rain = 0
KUM1 010948Z 02011KT M02/M10 A302 RMK A01 T10181100  RH  054%=      5-min Rain = 0
KUM1 010949Z 01011KT M02/M10 A302 RMK A01 T10171099  RH  054%=      5-min Rain = 0
KUM1 010950Z 01011KT M02/M10 A302 RMK A01 T10171099  RH  053%=      5-min Rain = 0
KUM1 010951Z 01011KT M02/M10 A302 RMK A01 T10161099  RH  053%=      5-min Rain = 0
KUM1 010952Z 01012KT M02/M10 A302 RMK A01 T10171099  RH  053%=      5-min Rain = 0
KUM1 010953Z 01012KT M02/M10 A302 RMK A01 T10161099  RH  054%=      5-min Rain = 0
KUM1 010954Z 01011KT M02/M10 A302 RMK A01 T10161098  RH  054%=      5-min Rain = 0
KUM1 010955Z 01010KT M02/M10 A302 RMK A01 T10161098  RH  054%=      5-min Rain = 0
KUM1 010956Z 01010KT M02/M10 A302 RMK A01 T10161098  RH  053%=      5-min Rain = 0
KUM1 010957Z 01010KT M02/M10 A302 RMK A01 T10171098  RH  054%=      5-min Rain = 0
KUM1 010958Z 01009KT M02/M10 A302 RMK A01 T10171097  RH  054%=      5-min Rain = 0
KUM1 010959Z 01009KT M02/M10 A302 RMK A01 T10171097  RH  054%=      5-min Rain = 0
KUM1 011000Z 01008KT M02/M10 A302 RMK A01 T10171097  RH  054%=      5-min Rain = 0
KUM1 011001Z 01009KT M02/M10 A302 RMK A01 T10171097  RH  055%=      5-min Rain = 0
KUM1 011002Z 01008KT M02/M10 A302 RMK A01 T10181097  RH  055%=      5-min Rain = 0
KUM1 011003Z 01008KT M02/M10 A302 RMK A01 T10181097  RH  055%=      5-min Rain = 0
KUM1 011004Z 01008KT M02/M10 A302 RMK A01 T10181097  RH  055%=      5-min Rain = 0
KUM1 011005Z 02008KT M02/M10 A3021 RMK A01 T10171097  RH  055%=      5-min Rain = 0
KUM1 011006Z 02008KT M02/M10 A3021 RMK A01 T10171097  RH  054%=      5-min Rain = 0
KUM1 011007Z 01008KT M02/M10 A3021 RMK A01 T10161097  RH  054%=      5-min Rain = 0
KUM1 011008Z 02008KT M02/M10 A3021 RMK A01 T10161098  RH  054%=      5-min Rain = 0
KUM1 011009Z 02008KT M02/M10 A3021 RMK A01 T10151098  RH  053%=      5-min Rain = 0
KUM1 011010Z 02008KT M02/M10 A3021 RMK A01 T10151097  RH  053%=      5-min Rain = 0
KUM1 011011Z 02008KT M02/M10 A3021 RMK A01 T10151098  RH  053%=      5-min Rain = 0
KUM1 011012Z 03008KT M02/M10 A3021 RMK A01 T10151098  RH  053%=      5-min Rain = 0
KUM1 011013Z 03008KT M01/M10 A3021 RMK A01 T10141098  RH  053%=      5-min Rain = 0
KUM1 011014Z 03008KT M02/M10 A3021 RMK A01 T10151098  RH  053%=      5-min Rain = 0
KUM1 011015Z 03008KT M02/M10 A3022 RMK A01 T10151098  RH  053%=      5-min Rain = 0
KUM1 011016Z 03007KT M01/M10 A3022 RMK A01 T10141097  RH  053%=      5-min Rain = 0
KUM1 011017Z 03007KT M01/M10 A3022 RMK A01 T10141097  RH  053%=      5-min Rain = 0
KUM1 011018Z 03008KT M01/M10 A3022 RMK A01 T10141097  RH  053%=      5-min Rain = 0
KUM1 011019Z 03007KT M01/M10 A3022 RMK A01 T10141097  RH  053%=      5-min Rain = 0
KUM1 011020Z 03008KT M01/M10 A3022 RMK A01 T10141097  RH  053%=      5-min Rain = 0
KUM1 011021Z 03008KT M01/M10 A3022 RMK A01 T10141096  RH  053%=      5-min Rain = 0
KUM1 011022Z 03007KT M01/M10 A3022 RMK A01 T10141096  RH  054%=      5-min Rain = 0
KUM1 011023Z 03007KT M01/M10 A3022 RMK A01 T10141096  RH  054%=      5-min Rain = 0
KUM1 011024Z 03007KT M02/M10 A3022 RMK A01 T10151096  RH  054%=      5-min Rain = 0
KUM1 011025Z 03007KT M02/M10 A3022 RMK A01 T10151096  RH  054%=      5-min Rain = 0
KUM1 011026Z 04007KT M02/M10 A3022 RMK A01 T10151096  RH  054%=      5-min Rain = 0
KUM1 011027Z 04007KT M02/M10 A3022 RMK A01 T10161096  RH  055%=      5-min Rain = 0
KUM1 011028Z 04007KT M02/M10 A3022 RMK A01 T10161096  RH  055%=      5-min Rain = 0
KUM1 011029Z 03007KT M02/M10 A3022 RMK A01 T10171096  RH  055%=      5-min Rain = 0
KUM1 011030Z 04007KT M02/M10 A3022 RMK A01 T10171095  RH  055%=      5-min Rain = 0
KUM1 011031Z 03007KT M02/M10 A3022 RMK A01 T10171096  RH  055%=      5-min Rain = 0
KUM1 011032Z 03007KT M02/M10 A3022 RMK A01 T10181096  RH  055%=      5-min Rain = 0
KUM1 011033Z 04007KT M02/M10 A3022 RMK A01 T10181095  RH  055%=      5-min Rain = 0
KUM1 011034Z 04007KT M02/M10 A3022 RMK A01 T10181095  RH  056%=      5-min Rain = 0
KUM1 011035Z 04007KT M02/M10 A3022 RMK A01 T10191096  RH  056%=      5-min Rain = 0
KUM1 011036Z 04007KT M02/M10 A3022 RMK A01 T10191096  RH  056%=      5-min Rain = 0
KUM1 011037Z 05006KT M02/M10 A3022 RMK A01 T10191095  RH  056%=      5-min Rain = 0
KUM1 011038Z 05006KT M02/M10 A3022 RMK A01 T10191095  RH  056%=      5-min Rain = 0
KUM1 011039Z 05006KT M02/M10 A3023 RMK A01 T10201095  RH  056%=      5-min Rain = 0
KUM1 011040Z 05006KT M02/M10 A3023 RMK A01 T10201095  RH  056%=      5-min Rain = 0
KUM1 011041Z 05006KT M02/M10 A3023 RMK A01 T10201095  RH  057%=      5-min Rain = 0
KUM1 011042Z 05005KT M02/M10 A3024 RMK A01 T10211095  RH  057%=      5-min Rain = 0
KUM1 011043Z 06005KT M02/M10 A3024 RMK A01 T10221096  RH  057%=      5-min Rain = 0
KUM1 011044Z 06005KT M02/M10 A3024 RMK A01 T10221095  RH  057%=      5-min Rain = 0
KUM1 011045Z 06004KT M02/M10 A3024 RMK A01 T10221095  RH  058%=      5-min Rain = 0
KUM1 011046Z 06005KT M02/M10 A3024 RMK A01 T10231095  RH  058%=      5-min Rain = 0
KUM1 011047Z 06005KT M02/M09 A3024 RMK A01 T10241094  RH  058%=      5-min Rain = 0
KUM1 011048Z 06005KT M02/M09 A3024 RMK A01 T10241093  RH  059%=      5-min Rain = 0
KUM1 011049Z 06005KT M02/M09 A3024 RMK A01 T10241093  RH  059%=      5-min Rain = 0
KUM1 011050Z 05005KT M02/M09 A3024 RMK A01 T10241093  RH  059%=      5-min Rain = 0
KUM1 011051Z 05004KT M03/M09 A3024 RMK A01 T10251094  RH  059%=      5-min Rain = 0
KUM1 011052Z 05004KT M03/M10 A3024 RMK A01 T10251095  RH  059%=      5-min Rain = 0
KUM1 011053Z 05004KT M03/M10 A3024 RMK A01 T10251096  RH  058%=      5-min Rain = 0
KUM1 011054Z 05004KT M03/M10 A3024 RMK A01 T10251097  RH  058%=      5-min Rain = 0
KUM1 011055Z 05004KT M03/M10 A3025 RMK A01 T10251096  RH  058%=      5-min Rain = 0
KUM1 011056Z 05004KT M03/M10 A3025 RMK A01 T10251096  RH  058%=      5-min Rain = 0
KUM1 011057Z 05004KT M03/M10 A3025 RMK A01 T10261096  RH  058%=      5-min Rain = 0
KUM1 011058Z 05004KT M03/M10 A3025 RMK A01 T10251096  RH  058%=      5-min Rain = 0
KUM1 011059Z 05004KT M03/M10 A3025 RMK A01 T10251097  RH  058%=      5-min Rain = 0
KUM1 011100Z 05004KT M03/M10 A3025 RMK A01 T10251096  RH  058%=      5-min Rain = 0
KUM1 011101Z 04004KT M03/M10 A3026 RMK A01 T10251098  RH  057%=      5-min Rain = 0
KUM1 011102Z 04005KT M03/M10 A3026 RMK A01 T10251100  RH  057%=      5-min Rain = 0
KUM1 011103Z 04005KT M03/M10 A3026 RMK A01 T10261100  RH  057%=      5-min Rain = 0
KUM1 011104Z 04005KT M03/M10 A3026 RMK A01 T10261100  RH  057%=      5-min Rain = 0
KUM1 011105Z 04005KT M03/M10 A3026 RMK A01 T10261099  RH  057%=      5-min Rain = 0
KUM1 011106Z 04005KT M03/M10 A3026 RMK A01 T10261099  RH  057%=      5-min Rain = 0
KUM1 011107Z 04005KT M03/M10 A3026 RMK A01 T10261099  RH  057%=      5-min Rain = 0
KUM1 011108Z 04005KT M03/M10 A3026 RMK A01 T10261099  RH  057%=      5-min Rain = 0
KUM1 011109Z 05005KT M03/M10 A3026 RMK A01 T10261099  RH  057%=      5-min Rain = 0
KUM1 011110Z 05004KT M03/M10 A3026 RMK A01 T10271099  RH  058%=      5-min Rain = 0
KUM1 011111Z 05004KT M03/M10 A3026 RMK A01 T10271098  RH  058%=      5-min Rain = 0
KUM1 011112Z 05004KT M03/M10 A3026 RMK A01 T10271098  RH  058%=      5-min Rain = 0
KUM1 011113Z 05005KT M03/M10 A3027 RMK A01 T10271097  RH  058%=      5-min Rain = 0
KUM1 011114Z 05004KT M03/M10 A3027 RMK A01 T10261097  RH  058%=      5-min Rain = 0
KUM1 011115Z 05004KT M03/M10 A3027 RMK A01 T10261097  RH  058%=      5-min Rain = 0
KUM1 011116Z 04004KT M03/M10 A3027 RMK A01 T10261097  RH  058%=      5-min Rain = 0
KUM1 011117Z 04004KT M03/M10 A3027 RMK A01 T10261098  RH  058%=      5-min Rain = 0
KUM1 011118Z 04004KT M03/M10 A3027 RMK A01 T10261098  RH  057%=      5-min Rain = 0
KUM1 011119Z 03004KT M03/M10 A3027 RMK A01 T10261099  RH  057%=      5-min Rain = 0
KUM1 011120Z 03003KT M03/M10 A3027 RMK A01 T10261099  RH  057%=      5-min Rain = 0
KUM1 011121Z 03003KT M03/M10 A3028 RMK A01 T10261100  RH  057%=      5-min Rain = 0
KUM1 011122Z 03002KT M03/M10 A3028 RMK A01 T10261100  RH  057%=      5-min Rain = 0
KUM1 011123Z 03000KT M03/M10 A3028 RMK A01 T10261103  RH  056%=      5-min Rain = 0
KUM1 011124Z 00000KT M03/M10 A3028 RMK A01 T10261102  RH  056%=      5-min Rain = 0
KUM1 011125Z 00000KT M03/M10 A3028 RMK A01 T10261102  RH  056%=      5-min Rain = 0
KUM1 011126Z 00000KT M03/M10 A3028 RMK A01 T10271102  RH  056%=      5-min Rain = 0
KUM1 011127Z 03000KT M03/M10 A3028 RMK A01 T10271102  RH  056%=      5-min Rain = 0
KUM1 011128Z 03000KT M03/M10 A3028 RMK A01 T10261101  RH  057%=      5-min Rain = 0
KUM1 011129Z 03001KT M03/M10 A3028 RMK A01 T10261100  RH  057%=      5-min Rain = 0
KUM1 011130Z 02001KT M03/M10 A3028 RMK A01 T10251099  RH  057%=      5-min Rain = 0
KUM1 011131Z 03002KT M02/M10 A3028 RMK A01 T10241098  RH  057%=      5-min Rain = 0
KUM1 011132Z 03003KT M02/M10 A3028 RMK A01 T10241097  RH  057%=      5-min Rain = 0
KUM1 011133Z 03002KT M02/M10 A3028 RMK A01 T10231096  RH  057%=      5-min Rain = 0
KUM1 011134Z 03002KT M02/M10 A3028 RMK A01 T10221096  RH  057%=      5-min Rain = 0
KUM1 011135Z 04003KT M02/M10 A3028 RMK A01 T10211096  RH  056%=      5-min Rain = 0
KUM1 011136Z 04004KT M02/M10 A3028 RMK A01 T10211097  RH  056%=      5-min Rain = 0
KUM1 011137Z 05004KT M02/M10 A3028 RMK A01 T10211096  RH  056%=      5-min Rain = 0
KUM1 011138Z 05004KT M02/M10 A3028 RMK A01 T10201095  RH  056%=      5-min Rain = 0
KUM1 011139Z 04004KT M02/M10 A3028 RMK A01 T10201096  RH  056%=      5-min Rain = 0
KUM1 011140Z 03004KT M02/M10 A3028 RMK A01 T10201099  RH  055%=      5-min Rain = 0
KUM1 011141Z 03004KT M02/M10 A3028 RMK A01 T10221102  RH  054%=      5-min Rain = 0
KUM1 011142Z 02004KT M02/M10 A3028 RMK A01 T10231104  RH  054%=      5-min Rain = 0
KUM1 011143Z 01004KT M03/M10 A3028 RMK A01 T10251104  RH  054%=      5-min Rain = 0
KUM1 011144Z 02004KT M03/M10 A3028 RMK A01 T10251102  RH  056%=      5-min Rain = 0
KUM1 011145Z 02004KT M03/M10 A3028 RMK A01 T10261100  RH  057%=      5-min Rain = 0
KUM1 011146Z 03004KT M03/M10 A3028 RMK A01 T10261100  RH  057%=      5-min Rain = 0
KUM1 011147Z 03004KT M03/M10 A3028 RMK A01 T10271101  RH  057%=      5-min Rain = 0
KUM1 011148Z 03004KT M03/M10 A3028 RMK A01 T10281102  RH  057%=      5-min Rain = 0
KUM1 011149Z 03005KT M03/M10 A3028 RMK A01 T10291103  RH  057%=      5-min Rain = 0
KUM1 011150Z 03005KT M03/M10 A3028 RMK A01 T10301103  RH  057%=      5-min Rain = 0
KUM1 011151Z 03005KT M03/M10 A3028 RMK A01 T10301103  RH  057%=      5-min Rain = 0
KUM1 011152Z 03005KT M03/M10 A3028 RMK A01 T10311103  RH  057%=      5-min Rain = 0
KUM1 011153Z 03006KT M03/M10 A3028 RMK A01 T10311102  RH  058%=      5-min Rain = 0
KUM1 011154Z 02006KT M03/M10 A3028 RMK A01 T10321103  RH  058%=      5-min Rain = 0
KUM1 011155Z 02006KT M03/M10 A3028 RMK A01 T10321102  RH  058%=      5-min Rain = 0
KUM1 011156Z 02007KT M03/M10 A3028 RMK A01 T10321102  RH  059%=      5-min Rain = 0
KUM1 011157Z 02007KT M03/M10 A3028 RMK A01 T10321101  RH  059%=      5-min Rain = 0
KUM1 011158Z 02007KT M03/M10 A3028 RMK A01 T10321101  RH  059%=      5-min Rain = 0
KUM1 011159Z 01007KT M03/M10 A3028 RMK A01 T10321101  RH  059%=      5-min Rain = 0
KUM1 011200Z 01006KT M03/M10 A3028 RMK A01 T10321101  RH  059%=      5-min Rain = 0
KUM1 011201Z 01006KT M03/M10 A3028 RMK A01 T10321101  RH  059%=      5-min Rain = 0
KUM1 011202Z 01006KT M03/M10 A3028 RMK A01 T10321101  RH  059%=      5-min Rain = 0
KUM1 011203Z 01006KT M03/M10 A3028 RMK A01 T10321101  RH  059%=      5-min Rain = 0
KUM1 011204Z 01005KT M03/M10 A3028 RMK A01 T10321101  RH  059%=      5-min Rain = 0
KUM1 011205Z 01006KT M03/M10 A3029 RMK A01 T10321101  RH  059%=      5-min Rain = 0
KUM1 011206Z 01005KT M03/M10 A3029 RMK A01 T10321101  RH  059%=      5-min Rain = 0
KUM1 011207Z 01005KT M03/M10 A3029 RMK A01 T10321101  RH  059%=      5-min Rain = 0
KUM1 011208Z 01005KT M03/M10 A3029 RMK A01 T10321102  RH  059%=      5-min Rain = 0
KUM1 011209Z 02005KT M03/M10 A3029 RMK A01 T10321102  RH  059%=      5-min Rain = 0
KUM1 011210Z 02005KT M03/M10 A3029 RMK A01 T10321102  RH  059%=      5-min Rain = 0
KUM1 011211Z 02005KT M03/M10 A3029 RMK A01 T10331102  RH  059%=      5-min Rain = 0
KUM1 011212Z 01005KT M03/M10 A3029 RMK A01 T10321101  RH  059%=      5-min Rain = 0
KUM1 011213Z 01005KT M03/M10 A3029 RMK A01 T10321101  RH  059%=      5-min Rain = 0
KUM1 011214Z 01005KT M03/M10 A3029 RMK A01 T10321101  RH  059%=      5-min Rain = 0
KUM1 011215Z 01005KT M03/M10 A3029 RMK A01 T10321101  RH  059%=      5-min Rain = 0
KUM1 011216Z 01005KT M03/M10 A3029 RMK A01 T10321101  RH  059%=      5-min Rain = 0
KUM1 011217Z 01005KT M03/M10 A3029 RMK A01 T10321101  RH  059%=      5-min Rain = 0
KUM1 011218Z 01006KT M03/M10 A3029 RMK A01 T10321102  RH  058%=      5-min Rain = 0
KUM1 011219Z 01006KT M03/M10 A3029 RMK A01 T10321101  RH  059%=      5-min Rain = 0
KUM1 011220Z 01006KT M03/M10 A3029 RMK A01 T10321101  RH  059%=      5-min Rain = 0
KUM1 011221Z 01006KT M03/M10 A3029 RMK A01 T10321102  RH  059%=      5-min Rain = 0
KUM1 011222Z 01006KT M03/M10 A3029 RMK A01 T10321102  RH  058%=      5-min Rain = 0
KUM1 011223Z 00006KT M03/M10 A3029 RMK A01 T10321102  RH  058%=      5-min Rain = 0
KUM1 011224Z 36006KT M03/M10 A3029 RMK A01 T10321103  RH  058%=      5-min Rain = 0
KUM1 011225Z 36005KT M03/M10 A3029 RMK A01 T10321103  RH  058%=      5-min Rain = 0
KUM1 011226Z 36005KT M03/M10 A3029 RMK A01 T10321104  RH  058%=      5-min Rain = 0
KUM1 011227Z 35004KT M03/M10 A3029 RMK A01 T10331103  RH  058%=      5-min Rain = 0
KUM1 011228Z 35004KT M03/M10 A3029 RMK A01 T10331103  RH  059%=      5-min Rain = 0
KUM1 011229Z 34004KT M03/M10 A3029 RMK A01 T10341102  RH  059%=      5-min Rain = 0
KUM1 011230Z 34004KT M03/M10 A3029 RMK A01 T10341102  RH  060%=      5-min Rain = 0
KUM1 011231Z 34004KT M03/M10 A3029 RMK A01 T10341102  RH  060%=      5-min Rain = 0
KUM1 011232Z 34005KT M04/M10 A3029 RMK A01 T10351102  RH  060%=      5-min Rain = 0
KUM1 011233Z 34004KT M03/M10 A3029 RMK A01 T10341102  RH  060%=      5-min Rain = 0
KUM1 011234Z 34005KT M04/M10 A3029 RMK A01 T10351103  RH  059%=      5-min Rain = 0
KUM1 011235Z 34005KT M03/M10 A3029 RMK A01 T10341103  RH  059%=      5-min Rain = 0
KUM1 011236Z 35006KT M03/M10 A3029 RMK A01 T10341103  RH  059%=      5-min Rain = 0
KUM1 011237Z 35006KT M03/M10 A3029 RMK A01 T10341103  RH  059%=      5-min Rain = 0
KUM1 011238Z 35006KT M03/M10 A3029 RMK A01 T10331103  RH  059%=      5-min Rain = 0
KUM1 011239Z 35006KT M03/M10 A3029 RMK A01 T10331103  RH  058%=      5-min Rain = 0
KUM1 011240Z 35006KT M03/M10 A3029 RMK A01 T10331103  RH  058%=      5-min Rain = 0
KUM1 011241Z 35006KT M03/M10 A3029 RMK A01 T10321102  RH  058%=      5-min Rain = 0
KUM1 011242Z 35007KT M03/M10 A3029 RMK A01 T10331103  RH  058%=      5-min Rain = 0
KUM1 011243Z 35007KT M03/M10 A3029 RMK A01 T10331103  RH  058%=      5-min Rain = 0
KUM1 011244Z 35007KT M03/M10 A3029 RMK A01 T10331103  RH  059%=      5-min Rain = 0
KUM1 011245Z 35007KT M03/M10 A3029 RMK A01 T10331102  RH  059%=      5-min Rain = 0
KUM1 011246Z 35007KT M03/M10 A3029 RMK A01 T10331102  RH  059%=      5-min Rain = 0
KUM1 011247Z 35006KT M03/M10 A3029 RMK A01 T10341102  RH  059%=      5-min Rain = 0
KUM1 011248Z 35006KT M03/M10 A3029 RMK A01 T10341101  RH  060%=      5-min Rain = 0
KUM1 011249Z 34006KT M03/M10 A303 RMK A01 T10341101  RH  060%=      5-min Rain = 0
KUM1 011250Z 34006KT M03/M10 A303 RMK A01 T10341101  RH  060%=      5-min Rain = 0
KUM1 011251Z 34006KT M03/M10 A303 RMK A01 T10341102  RH  059%=      5-min Rain = 0
KUM1 011252Z 33006KT M03/M10 A303 RMK A01 T10341102  RH  059%=      5-min Rain = 0
KUM1 011253Z 33007KT M03/M10 A303 RMK A01 T10331102  RH  059%=      5-min Rain = 0
KUM1 011254Z 33007KT M03/M10 A303 RMK A01 T10341102  RH  059%=      5-min Rain = 0
KUM1 011255Z 34007KT M03/M10 A303 RMK A01 T10341102  RH  059%=      5-min Rain = 0
KUM1 011256Z 34007KT M03/M10 A303 RMK A01 T10341102  RH  059%=      5-min Rain = 0
KUM1 011257Z 34007KT M03/M10 A303 RMK A01 T10331101  RH  059%=      5-min Rain = 0
KUM1 011258Z 34007KT M03/M10 A303 RMK A01 T10331102  RH  059%=      5-min Rain = 0
KUM1 011259Z 34007KT M03/M10 A303 RMK A01 T10331102  RH  059%=      5-min Rain = 0
KUM1 011300Z 34007KT M03/M10 A303 RMK A01 T10341103  RH  059%=      5-min Rain = 0
KUM1 011301Z 34007KT M03/M10 A303 RMK A01 T10341103  RH  059%=      5-min Rain = 0
KUM1 011302Z 34007KT M03/M10 A303 RMK A01 T10341103  RH  059%=      5-min Rain = 0
KUM1 011303Z 34007KT M03/M10 A303 RMK A01 T10331103  RH  059%=      5-min Rain = 0
KUM1 011304Z 34007KT M03/M10 A303 RMK A01 T10341103  RH  059%=      5-min Rain = 0
KUM1 011305Z 34008KT M03/M10 A303 RMK A01 T10341103  RH  059%=      5-min Rain = 0
KUM1 011306Z 34008KT M03/M10 A303 RMK A01 T10341103  RH  059%=      5-min Rain = 0
KUM1 011307Z 34008KT M03/M10 A303 RMK A01 T10341103  RH  059%=      5-min Rain = 0
KUM1 011308Z 34008KT M03/M10 A303 RMK A01 T10341103  RH  059%=      5-min Rain = 0
KUM1 011309Z 34008KT M03/M10 A303 RMK A01 T10341103  RH  059%=      5-min Rain = 0
KUM1 011310Z 34008KT M04/M10 A303 RMK A01 T10351103  RH  059%=      5-min Rain = 0
KUM1 011311Z 34008KT M03/M10 A303 RMK A01 T10341103  RH  059%=      5-min Rain = 0
KUM1 011312Z 34008KT M03/M10 A303 RMK A01 T10341103  RH  059%=      5-min Rain = 0
KUM1 011313Z 34008KT M04/M10 A303 RMK A01 T10351103  RH  059%=      5-min Rain = 0
KUM1 011314Z 34008KT M03/M10 A303 RMK A01 T10341103  RH  059%=      5-min Rain = 0
KUM1 011315Z 34008KT M03/M10 A303 RMK A01 T10341103  RH  059%=      5-min Rain = 0
KUM1 011316Z 34008KT M04/M10 A303 RMK A01 T10351103  RH  059%=      5-min Rain = 0
KUM1 011317Z 34008KT M04/M10 A303 RMK A01 T10351103  RH  059%=      5-min Rain = 0
KUM1 011318Z 34008KT M04/M10 A303 RMK A01 T10351103  RH  059%=      5-min Rain = 0
KUM1 011319Z 34009KT M04/M10 A303 RMK A01 T10351103  RH  059%=      5-min Rain = 0
KUM1 011320Z 34009KT M04/M10 A303 RMK A01 T10351103  RH  059%=      5-min Rain = 0
KUM1 011321Z 34009KT M04/M10 A303 RMK A01 T10351102  RH  060%=      5-min Rain = 0
KUM1 011322Z 34008KT M04/M10 A303 RMK A01 T10351102  RH  060%=      5-min Rain = 0
KUM1 011323Z 35008KT M04/M10 A303 RMK A01 T10351102  RH  060%=      5-min Rain = 0
KUM1 011324Z 35008KT M04/M10 A303 RMK A01 T10351102  RH  060%=      5-min Rain = 0
KUM1 011325Z 35007KT M04/M10 A303 RMK A01 T10351102  RH  060%=      5-min Rain = 0
KUM1 011326Z 35007KT M04/M10 A303 RMK A01 T10351102  RH  060%=      5-min Rain = 0
KUM1 011327Z 35007KT M04/M10 A303 RMK A01 T10351102  RH  060%=      5-min Rain = 0
KUM1 011328Z 35007KT M04/M10 A303 RMK A01 T10351102  RH  060%=      5-min Rain = 0
KUM1 011329Z 35007KT M04/M10 A303 RMK A01 T10351102  RH  060%=      5-min Rain = 0
KUM1 011330Z 35007KT M04/M10 A303 RMK A01 T10351101  RH  060%=      5-min Rain = 0
KUM1 011331Z 35007KT M04/M10 A303 RMK A01 T10351101  RH  060%=      5-min Rain = 0
KUM1 011332Z 35006KT M04/M10 A303 RMK A01 T10351101  RH  060%=      5-min Rain = 0
KUM1 011333Z 35006KT M04/M10 A303 RMK A01 T10351102  RH  060%=      5-min Rain = 0
KUM1 011334Z 35006KT M04/M10 A3031 RMK A01 T10351101  RH  060%=      5-min Rain = 0
KUM1 011335Z 35006KT M04/M10 A3031 RMK A01 T10351101  RH  060%=      5-min Rain = 0
KUM1 011336Z 35006KT M04/M10 A3031 RMK A01 T10351102  RH  060%=      5-min Rain = 0
KUM1 011337Z 35006KT M04/M10 A3031 RMK A01 T10351102  RH  060%=      5-min Rain = 0
KUM1 011338Z 35006KT M04/M10 A3031 RMK A01 T10351102  RH  060%=      5-min Rain = 0
KUM1 011339Z 35005KT M04/M10 A3031 RMK A01 T10351102  RH  060%=      5-min Rain = 0
KUM1 011340Z 35005KT M04/M10 A3031 RMK A01 T10351102  RH  060%=      5-min Rain = 0
KUM1 011341Z 35005KT M04/M10 A3031 RMK A01 T10351102  RH  060%=      5-min Rain = 0
KUM1 011342Z 35006KT M04/M10 A3032 RMK A01 T10351102  RH  060%=      5-min Rain = 0
KUM1 011343Z 35006KT M04/M10 A3032 RMK A01 T10351103  RH  059%=      5-min Rain = 0
KUM1 011344Z 35006KT M03/M10 A3032 RMK A01 T10341103  RH  059%=      5-min Rain = 0
KUM1 011345Z 35006KT M03/M10 A3032 RMK A01 T10341102  RH  059%=      5-min Rain = 0
KUM1 011346Z 35006KT M03/M10 A3032 RMK A01 T10341102  RH  059%=      5-min Rain = 0
KUM1 011347Z 35006KT M03/M10 A3032 RMK A01 T10341103  RH  059%=      5-min Rain = 0
KUM1 011348Z 35006KT M03/M10 A3032 RMK A01 T10331102  RH  059%=      5-min Rain = 0
KUM1 011349Z 35006KT M03/M10 A3032 RMK A01 T10331102  RH  059%=      5-min Rain = 0
KUM1 011350Z 36006KT M03/M10 A3032 RMK A01 T10331102  RH  059%=      5-min Rain = 0
KUM1 011351Z 35006KT M03/M10 A3032 RMK A01 T10331102  RH  059%=      5-min Rain = 0
KUM1 011352Z 35005KT M03/M10 A3032 RMK A01 T10331102  RH  059%=      5-min Rain = 0
KUM1 011353Z 35005KT M03/M10 A3033 RMK A01 T10331103  RH  059%=      5-min Rain = 0
KUM1 011354Z 35005KT M03/M10 A3033 RMK A01 T10331102  RH  059%=      5-min Rain = 0
KUM1 011355Z 35005KT M03/M10 A3033 RMK A01 T10331102  RH  059%=      5-min Rain = 0
KUM1 011356Z 34004KT M03/M10 A3033 RMK A01 T10321102  RH  059%=      5-min Rain = 0
KUM1 011357Z 34004KT M03/M10 A3033 RMK A01 T10331102  RH  059%=      5-min Rain = 0
KUM1 011358Z 34004KT M03/M10 A3033 RMK A01 T10331102  RH  059%=      5-min Rain = 0
KUM1 011359Z 34004KT M03/M10 A3033 RMK A01 T10331102  RH  059%=      5-min Rain = 0
KUM1 011400Z 34004KT M03/M10 A3033 RMK A01 T10331102  RH  059%=      5-min Rain = 0
KUM1 011401Z 34004KT M03/M10 A3033 RMK A01 T10321102  RH  059%=      5-min Rain = 0
KUM1 011402Z 34003KT M03/M10 A3034 RMK A01 T10331102  RH  059%=      5-min Rain = 0
KUM1 011403Z 34003KT M03/M10 A3034 RMK A01 T10331102  RH  059%=      5-min Rain = 0
KUM1 011404Z 34003KT M03/M10 A3034 RMK A01 T10331103  RH  059%=      5-min Rain = 0
KUM1 011405Z 34003KT M03/M10 A3034 RMK A01 T10331102  RH  059%=      5-min Rain = 0
KUM1 011406Z 34003KT M03/M10 A3034 RMK A01 T10331102  RH  059%=      5-min Rain = 0
KUM1 011407Z 34003KT M03/M10 A3034 RMK A01 T10331102  RH  059%=      5-min Rain = 0
KUM1 011408Z 34003KT M03/M10 A3034 RMK A01 T10331102  RH  059%=      5-min Rain = 0
KUM1 011409Z 34003KT M03/M10 A3034 RMK A01 T10331102  RH  059%=      5-min Rain = 0
KUM1 011410Z 33003KT M03/M10 A3034 RMK A01 T10331102  RH  059%=      5-min Rain = 0
KUM1 011411Z 34003KT M03/M10 A3034 RMK A01 T10331102  RH  059%=      5-min Rain = 0
KUM1 011412Z 33003KT M03/M10 A3035 RMK A01 T10321102  RH  059%=      5-min Rain = 0
KUM1 011413Z 33004KT M03/M10 A3035 RMK A01 T10321102  RH  059%=      5-min Rain = 0
KUM1 011414Z 33003KT M03/M10 A3035 RMK A01 T10321102  RH  058%=      5-min Rain = 0
KUM1 011415Z 33003KT M03/M10 A3035 RMK A01 T10311101  RH  059%=      5-min Rain = 0
KUM1 011416Z 33003KT M03/M10 A3035 RMK A01 T10311101  RH  059%=      5-min Rain = 0
KUM1 011417Z 33004KT M03/M10 A3035 RMK A01 T10311100  RH  059%=      5-min Rain = 0
KUM1 011418Z 33004KT M03/M10 A3035 RMK A01 T10311100  RH  059%=      5-min Rain = 0
KUM1 011419Z 33004KT M03/M10 A3035 RMK A01 T10311099  RH  059%=      5-min Rain = 0
KUM1 011420Z 32004KT M03/M10 A3035 RMK A01 T10301098  RH  059%=      5-min Rain = 0
KUM1 011421Z 33004KT M03/M10 A3035 RMK A01 T10291097  RH  060%=      5-min Rain = 0
KUM1 011422Z 32004KT M03/M10 A3035 RMK A01 T10281097  RH  059%=      5-min Rain = 0
KUM1 011423Z 32004KT M03/M10 A3035 RMK A01 T10281096  RH  059%=      5-min Rain = 0
KUM1 011424Z 33005KT M03/M10 A3035 RMK A01 T10271097  RH  059%=      5-min Rain = 0
KUM1 011425Z 33005KT M03/M10 A3035 RMK A01 T10271096  RH  059%=      5-min Rain = 0
KUM1 011426Z 33005KT M03/M10 A3035 RMK A01 T10261096  RH  059%=      5-min Rain = 0
KUM1 011427Z 33006KT M03/M10 A3035 RMK A01 T10251096  RH  059%=      5-min Rain = 0
KUM1 011428Z 33007KT M03/M10 A3035 RMK A01 T10251095  RH  058%=      5-min Rain = 0
KUM1 011429Z 33007KT M02/M10 A3035 RMK A01 T10241095  RH  058%=      5-min Rain = 0
KUM1 011430Z 33007KT M02/M09 A3035 RMK A01 T10231094  RH  058%=      5-min Rain = 0
KUM1 011431Z 33007KT M02/M09 A3035 RMK A01 T10221094  RH  058%=      5-min Rain = 0
KUM1 011432Z 33007KT M02/M09 A3035 RMK A01 T10211094  RH  058%=      5-min Rain = 0
KUM1 011433Z 34007KT M02/M09 A3035 RMK A01 T10211094  RH  057%=      5-min Rain = 0
KUM1 011434Z 34007KT M02/M09 A3035 RMK A01 T10201094  RH  057%=      5-min Rain = 0
KUM1 011435Z 34008KT M02/M09 A3035 RMK A01 T10191094  RH  057%=      5-min Rain = 0
KUM1 011436Z 34007KT M02/M09 A3035 RMK A01 T10181094  RH  056%=      5-min Rain = 0
KUM1 011437Z 34007KT M02/M09 A3036 RMK A01 T10171094  RH  056%=      5-min Rain = 0
KUM1 011438Z 34005KT M02/M09 A3036 RMK A01 T10171094  RH  056%=      5-min Rain = 0
KUM1 011439Z 33005KT M02/M09 A3036 RMK A01 T10161093  RH  056%=      5-min Rain = 0
KUM1 011440Z 33005KT M02/M09 A3036 RMK A01 T10161092  RH  056%=      5-min Rain = 0
KUM1 011441Z 33005KT M02/M09 A3036 RMK A01 T10151092  RH  056%=      5-min Rain = 0
KUM1 011442Z 33005KT M02/M09 A3036 RMK A01 T10151092  RH  056%=      5-min Rain = 0
KUM1 011443Z 32004KT M02/M09 A3036 RMK A01 T10151092  RH  056%=      5-min Rain = 0
KUM1 011444Z 33004KT M01/M09 A3036 RMK A01 T10141091  RH  056%=      5-min Rain = 0
KUM1 011445Z 32004KT M01/M09 A3036 RMK A01 T10131090  RH  056%=      5-min Rain = 0
KUM1 011446Z 33005KT M01/M09 A3036 RMK A01 T10121090  RH  056%=      5-min Rain = 0
KUM1 011447Z 32005KT M01/M09 A3036 RMK A01 T10111089  RH  055%=      5-min Rain = 0
KUM1 011448Z 32005KT M01/M09 A3036 RMK A01 T10111089  RH  055%=      5-min Rain = 0
KUM1 011449Z 32005KT M01/M09 A3036 RMK A01 T10101089  RH  055%=      5-min Rain = 0
KUM1 011450Z 33006KT M01/M09 A3036 RMK A01 T10091089  RH  055%=      5-min Rain = 0
KUM1 011451Z 33006KT M01/M09 A3036 RMK A01 T10091090  RH  054%=      5-min Rain = 0
KUM1 011452Z 33006KT M01/M09 A3036 RMK A01 T10091090  RH  054%=      5-min Rain = 0
KUM1 011453Z 33006KT M01/M09 A3036 RMK A01 T10081089  RH  054%=      5-min Rain = 0
KUM1 011454Z 33006KT M01/M09 A3036 RMK A01 T10071089  RH  054%=      5-min Rain = 0
KUM1 011455Z 34006KT M01/M09 A3036 RMK A01 T10071089  RH  054%=      5-min Rain = 0
KUM1 011456Z 33006KT M01/M09 A3036 RMK A01 T10071089  RH  054%=      5-min Rain = 0
KUM1 011457Z 34007KT M01/M09 A3036 RMK A01 T10061088  RH  054%=      5-min Rain = 0
KUM1 011458Z 34005KT M01/M09 A3036 RMK A01 T10051087  RH  054%=      5-min Rain = 0
KUM1 011459Z 34006KT M00/M09 A3036 RMK A01 T10031086  RH  054%=      5-min Rain = 0
KUM1 011500Z 34006KT M00/M09 A3036 RMK A01 T10021086  RH  053%=      5-min Rain = 0
KUM1 011501Z 34006KT M00/M09 A3036 RMK A01 T10021086  RH  053%=      5-min Rain = 0
KUM1 011502Z 33005KT M00/M09 A3036 RMK A01 T10021086  RH  053%=      5-min Rain = 0
KUM1 011503Z 33006KT M00/M09 A3036 RMK A01 T10021087  RH  053%=      5-min Rain = 0
KUM1 011504Z 33006KT M00/M09 A3036 RMK A01 T10031087  RH  053%=      5-min Rain = 0
KUM1 011505Z 33006KT M00/M09 A3036 RMK A01 T10031087  RH  053%=      5-min Rain = 0
KUM1 011506Z 33006KT M00/M09 A3036 RMK A01 T10031086  RH  053%=      5-min Rain = 0
KUM1 011507Z 33006KT M00/M09 A3036 RMK A01 T10021086  RH  053%=      5-min Rain = 0
KUM1 011508Z 33007KT M00/M09 A3036 RMK A01 T10021086  RH  053%=      5-min Rain = 0
KUM1 011509Z 33006KT M00/M09 A3036 RMK A01 T10021086  RH  053%=      5-min Rain = 0
KUM1 011510Z 33006KT M00/M09 A3036 RMK A01 T10011085  RH  053%=      5-min Rain = 0
KUM1 011511Z 33006KT 00/M08 A3037 RMK A01 T00011083  RH  053%=      5-min Rain = 0
KUM1 011512Z 34006KT 00/M08 A3037 RMK A01 T00031083  RH  053%=      5-min Rain = 0
KUM1 011513Z 34007KT 00/M08 A3037 RMK A01 T00041084  RH  052%=      5-min Rain = 0
KUM1 011514Z 34007KT 00/M09 A3037 RMK A01 T00041086  RH  051%=      5-min Rain = 0
KUM1 011515Z 34007KT 00/M09 A3037 RMK A01 T00041085  RH  051%=      5-min Rain = 0
KUM1 011516Z 34006KT 01/M08 A3037 RMK A01 T00051084  RH  051%=      5-min Rain = 0
KUM1 011517Z 34007KT 01/M08 A3037 RMK A01 T00061084  RH  051%=      5-min Rain = 0
KUM1 011518Z 34006KT 01/M08 A3037 RMK A01 T00071084  RH  051%=      5-min Rain = 0
KUM1 011519Z 34007KT 01/M09 A3037 RMK A01 T00071085  RH  051%=      5-min Rain = 0
KUM1 011520Z 33007KT 01/M08 A3037 RMK A01 T00071084  RH  051%=      5-min Rain = 0
KUM1 011521Z 34007KT 01/M08 A3037 RMK A01 T00071084  RH  050%=      5-min Rain = 0
KUM1 011522Z 34006KT 01/M09 A3037 RMK A01 T00061085  RH  050%=      5-min Rain = 0
KUM1 011523Z 34006KT 01/M08 A3037 RMK A01 T00071084  RH  051%=      5-min Rain = 0
KUM1 011524Z 35006KT 01/M08 A3037 RMK A01 T00081084  RH  050%=      5-min Rain = 0
KUM1 011525Z 34006KT 01/M08 A3037 RMK A01 T00091083  RH  050%=      5-min Rain = 0
KUM1 011526Z 34007KT 01/M08 A3037 RMK A01 T00101083  RH  050%=      5-min Rain = 0
KUM1 011527Z 35006KT 01/M08 A3037 RMK A01 T00101083  RH  050%=      5-min Rain = 0
KUM1 011528Z 34007KT 01/M08 A3037 RMK A01 T00111084  RH  049%=      5-min Rain = 0
KUM1 011529Z 35007KT 01/M08 A3038 RMK A01 T00111084  RH  049%=      5-min Rain = 0
KUM1 011530Z 34006KT 01/M09 A3038 RMK A01 T00111085  RH  049%=      5-min Rain = 0
KUM1 011531Z 33007KT 01/M09 A3038 RMK A01 T00111085  RH  049%=      5-min Rain = 0
KUM1 011532Z 34007KT 01/M09 A3038 RMK A01 T00111087  RH  048%=      5-min Rain = 0
KUM1 011533Z 34008KT 01/M09 A3038 RMK A01 T00101086  RH  048%=      5-min Rain = 0
KUM1 011534Z 33007KT 01/M09 A3038 RMK A01 T00111087  RH  048%=      5-min Rain = 0
KUM1 011535Z 33007KT 01/M09 A3038 RMK A01 T00101088  RH  048%=      5-min Rain = 0
KUM1 011536Z 33008KT 01/M09 A3038 RMK A01 T00101088  RH  048%=      5-min Rain = 0
KUM1 011537Z 34008KT 01/M09 A3038 RMK A01 T00101087  RH  048%=      5-min Rain = 0
KUM1 011538Z 34006KT 01/M09 A3038 RMK A01 T00111086  RH  048%=      5-min Rain = 0
KUM1 011539Z 35008KT 01/M09 A3038 RMK A01 T00121086  RH  048%=      5-min Rain = 0
KUM1 011540Z 35008KT 01/M09 A3038 RMK A01 T00131087  RH  047%=      5-min Rain = 0
KUM1 011541Z 35007KT 01/M09 A3038 RMK A01 T00131086  RH  047%=      5-min Rain = 0
KUM1 011542Z 34006KT 01/M09 A3038 RMK A01 T00141086  RH  047%=      5-min Rain = 0
KUM1 011543Z 34007KT 02/M09 A3038 RMK A01 T00151085  RH  047%=      5-min Rain = 0
KUM1 011544Z 34007KT 02/M09 A3038 RMK A01 T00161086  RH  047%=      5-min Rain = 0
KUM1 011545Z 34007KT 02/M09 A3038 RMK A01 T00161086  RH  047%=      5-min Rain = 0
KUM1 011546Z 34007KT 02/M09 A3038 RMK A01 T00151087  RH  046%=      5-min Rain = 0
KUM1 011547Z 34006KT 02/M09 A3038 RMK A01 T00151088  RH  046%=      5-min Rain = 0
KUM1 011548Z 34006KT 02/M09 A3038 RMK A01 T00151088  RH  046%=      5-min Rain = 0
KUM1 011549Z 34007KT 02/M09 A3038 RMK A01 T00161086  RH  047%=      5-min Rain = 0
KUM1 011550Z 34007KT 02/M09 A3038 RMK A01 T00161087  RH  046%=      5-min Rain = 0
KUM1 011551Z 34006KT 02/M09 A3038 RMK A01 T00171087  RH  046%=      5-min Rain = 0
KUM1 011552Z 34006KT 02/M08 A3038 RMK A01 T00191084  RH  047%=      5-min Rain = 0
KUM1 011553Z 33008KT 02/M08 A3038 RMK A01 T00191084  RH  046%=      5-min Rain = 0
KUM1 011554Z 33008KT 02/M09 A3038 RMK A01 T00191085  RH  046%=      5-min Rain = 0
KUM1 011555Z 33007KT 02/M09 A3038 RMK A01 T00171086  RH  046%=      5-min Rain = 0
KUM1 011556Z 34008KT 02/M08 A3038 RMK A01 T00181084  RH  047%=      5-min Rain = 0
KUM1 011557Z 34007KT 02/M09 A3038 RMK A01 T00191085  RH  046%=      5-min Rain = 0
KUM1 011558Z 33007KT 02/M09 A3038 RMK A01 T00201086  RH  046%=      5-min Rain = 0
KUM1 011559Z 34007KT 02/M08 A3038 RMK A01 T00211084  RH  046%=      5-min Rain = 0
KUM1 011600Z 34008KT 02/M09 A3038 RMK A01 T00221086  RH  045%=      5-min Rain = 0
KUM1 011601Z 33008KT 02/M09 A3038 RMK A01 T00231086  RH  045%=      5-min Rain = 0
KUM1 011602Z 34008KT 02/M09 A3038 RMK A01 T00231086  RH  044%=      5-min Rain = 0
KUM1 011603Z 35009KT 02/M09 A3038 RMK A01 T00231086  RH  044%=      5-min Rain = 0
KUM1 011604Z 35008KT 02/M09 A3038 RMK A01 T00241086  RH  044%=      5-min Rain = 0
KUM1 011605Z 35008KT 03/M09 A3038 RMK A01 T00251088  RH  043%=      5-min Rain = 0
KUM1 011606Z 34008KT 03/M09 A3038 RMK A01 T00251090  RH  043%=      5-min Rain = 0
KUM1 011607Z 34008KT 03/M09 A3038 RMK A01 T00251088  RH  043%=      5-min Rain = 0
KUM1 011608Z 35009KT 03/M09 A3038 RMK A01 T00261088  RH  043%=      5-min Rain = 0
KUM1 011609Z 35007KT 03/M09 A3038 RMK A01 T00271086  RH  043%=      5-min Rain = 0
KUM1 011610Z 35008KT 03/M09 A3038 RMK A01 T00281087  RH  043%=      5-min Rain = 0
KUM1 011611Z 35008KT 03/M08 A3038 RMK A01 T00321083  RH  043%=      5-min Rain = 0
KUM1 011612Z 34008KT 03/M09 A3038 RMK A01 T00321087  RH  041%=      5-min Rain = 0
KUM1 011613Z 34008KT 03/M09 A3038 RMK A01 T00321087  RH  041%=      5-min Rain = 0
KUM1 011614Z 35007KT 03/M09 A3038 RMK A01 T00331086  RH  041%=      5-min Rain = 0
KUM1 011615Z 35008KT 04/M09 A3038 RMK A01 T00351087  RH  040%=      5-min Rain = 0
KUM1 011616Z 00007KT 04/M09 A3038 RMK A01 T00351092  RH  039%=      5-min Rain = 0
KUM1 011617Z 00006KT 04/M09 A3038 RMK A01 T00371090  RH  039%=      5-min Rain = 0
KUM1 011618Z 01008KT 04/M09 A3038 RMK A01 T00391090  RH  038%=      5-min Rain = 0
KUM1 011619Z 00006KT 04/M09 A3038 RMK A01 T00401094  RH  037%=      5-min Rain = 0
KUM1 011620Z 01006KT 04/M09 A3038 RMK A01 T00371094  RH  038%=      5-min Rain = 0
KUM1 011621Z 00007KT 04/M09 A3038 RMK A01 T00371091  RH  039%=      5-min Rain = 0
KUM1 011622Z 36007KT 04/M09 A3038 RMK A01 T00381092  RH  038%=      5-min Rain = 0
KUM1 011623Z 36006KT 04/M09 A3038 RMK A01 T00391094  RH  037%=      5-min Rain = 0
KUM1 011624Z 01007KT 04/M10 A3038 RMK A01 T00401096  RH  036%=      5-min Rain = 0
KUM1 011625Z 35007KT 04/M09 A3038 RMK A01 T00421092  RH  037%=      5-min Rain = 0
KUM1 011626Z 01006KT 04/M09 A3038 RMK A01 T00441089  RH  037%=      5-min Rain = 0
KUM1 011627Z 02006KT 04/M09 A3038 RMK A01 T00431094  RH  036%=      5-min Rain = 0
KUM1 011628Z 02007KT 04/M10 A3038 RMK A01 T00431095  RH  036%=      5-min Rain = 0
KUM1 011629Z 00007KT 04/M10 A3039 RMK A01 T00431096  RH  035%=      5-min Rain = 0
KUM1 011630Z 02007KT 04/M10 A3039 RMK A01 T00431101  RH  034%=      5-min Rain = 0
KUM1 011631Z 03006KT 04/M10 A3039 RMK A01 T00431104  RH  033%=      5-min Rain = 0
KUM1 011632Z 03007KT 04/M10 A3039 RMK A01 T00421103  RH  034%=      5-min Rain = 0
KUM1 011633Z 02009KT 05/M10 A3039 RMK A01 T00451098  RH  035%=      5-min Rain = 0
KUM1 011634Z 04006KT 05/M10 A3039 RMK A01 T00491099  RH  033%=      5-min Rain = 0
KUM1 011635Z 04005KT 05/M10 A3039 RMK A01 T00491104  RH  032%=      5-min Rain = 0
KUM1 011636Z 02008KT 05/M11 A3039 RMK A01 T00471105  RH  032%=      5-min Rain = 0
KUM1 011637Z 04009KT 05/M11 A3039 RMK A01 T00461105  RH  032%=      5-min Rain = 0
KUM1 011638Z 04007KT 05/M11 A3039 RMK A01 T00471105  RH  032%=      5-min Rain = 0
KUM1 011639Z 03008KT 05/M10 A3039 RMK A01 T00481102  RH  033%=      5-min Rain = 0
KUM1 011640Z 01007KT 05/M10 A3039 RMK A01 T00481102  RH  033%=      5-min Rain = 0
KUM1 011641Z 02008KT 05/M10 A3039 RMK A01 T00491102  RH  033%=      5-min Rain = 0
KUM1 011642Z 03007KT 05/M10 A3039 RMK A01 T00501104  RH  032%=      5-min Rain = 0
KUM1 011643Z 04007KT 05/M10 A3039 RMK A01 T00521102  RH  032%=      5-min Rain = 0
KUM1 011644Z 02008KT 05/M10 A3039 RMK A01 T00541100  RH  032%=      5-min Rain = 0
KUM1 011645Z 03005KT 06/M10 A3039 RMK A01 T00551099  RH  032%=      5-min Rain = 0
KUM1 011646Z 04008KT 06/M10 A3039 RMK A01 T00561099  RH  032%=      5-min Rain = 0
KUM1 011647Z 02007KT 06/M10 A3039 RMK A01 T00561101  RH  031%=      5-min Rain = 0
KUM1 011648Z 02009KT 06/M10 A3039 RMK A01 T00551102  RH  031%=      5-min Rain = 0
KUM1 011649Z 02009KT 06/M11 A3039 RMK A01 T00551105  RH  031%=      5-min Rain = 0
KUM1 011650Z 01006KT 05/M11 A3039 RMK A01 T00521107  RH  031%=      5-min Rain = 0
KUM1 011651Z 03008KT 05/M11 A3039 RMK A01 T00511106  RH  031%=      5-min Rain = 0
KUM1 011652Z 04010KT 05/M10 A3039 RMK A01 T00541101  RH  032%=      5-min Rain = 0
KUM1 011653Z 03009KT 05/M10 A3039 RMK A01 T00541104  RH  031%=      5-min Rain = 0
KUM1 011654Z 03010KT 05/M11 A3039 RMK A01 T00531105  RH  031%=      5-min Rain = 0
KUM1 011655Z 03009KT 05/M10 A3039 RMK A01 T00531102  RH  032%=      5-min Rain = 0
KUM1 011656Z 01009KT 06/M10 A3039 RMK A01 T00551102  RH  031%=      5-min Rain = 0
KUM1 011657Z 01007KT 06/M10 A3039 RMK A01 T00571101  RH  031%=      5-min Rain = 0
KUM1 011658Z 03009KT 06/M10 A3039 RMK A01 T00581102  RH  031%=      5-min Rain = 0
KUM1 011659Z 04009KT 06/M10 A3039 RMK A01 T00591101  RH  031%=      5-min Rain = 0
KUM1 011700Z 03008KT 06/M10 A3039 RMK A01 T00601104  RH  030%=      5-min Rain = 0
KUM1 011701Z 03010KT 06/M10 A3039 RMK A01 T00591104  RH  030%=      5-min Rain = 0
KUM1 011702Z 02008KT 06/M11 A3039 RMK A01 T00581105  RH  030%=      5-min Rain = 0
KUM1 011703Z 02007KT 06/M11 A3039 RMK A01 T00551106  RH  030%=      5-min Rain = 0
KUM1 011704Z 03009KT 06/M11 A3039 RMK A01 T00561105  RH  030%=      5-min Rain = 0
KUM1 011705Z 03008KT 06/M11 A3039 RMK A01 T00561105  RH  030%=      5-min Rain = 0
KUM1 011706Z 05006KT 06/M11 A3039 RMK A01 T00561105  RH  030%=      5-min Rain = 0
KUM1 011707Z 03004KT 06/M10 A3039 RMK A01 T00571104  RH  030%=      5-min Rain = 0
KUM1 011708Z 02008KT 06/M10 A3039 RMK A01 T00611100  RH  031%=      5-min Rain = 0
KUM1 011709Z 04009G14KT 06/M10 A3039 RMK A01 T00641102  RH  029%=      5-min Rain = 0
KUM1 011710Z 03011KT 06/M10 A3039 RMK A01 T00631104  RH  029%=      5-min Rain = 0
KUM1 011711Z 02009KT 06/M11 A3039 RMK A01 T00631105  RH  029%=      5-min Rain = 0
KUM1 011712Z 05005KT 06/M11 A3039 RMK A01 T00631105  RH  029%=      5-min Rain = 0
KUM1 011713Z 04005KT 06/M11 A3039 RMK A01 T00621109  RH  028%=      5-min Rain = 0
KUM1 011714Z 01007KT 06/M10 A3039 RMK A01 T00631102  RH  029%=      5-min Rain = 0
KUM1 011715Z 02010KT 07/M10 A3039 RMK A01 T00651103  RH  029%=      5-min Rain = 0
KUM1 011716Z 01008G13KT 07/M11 A304 RMK A01 T00651105  RH  028%=      5-min Rain = 0
KUM1 011717Z 02012KT 07/M10 A304 RMK A01 T00651104  RH  029%=      5-min Rain = 0
KUM1 011718Z 03012KT 07/M10 A304 RMK A01 T00651101  RH  029%=      5-min Rain = 0
KUM1 011719Z 03008KT 07/M10 A304 RMK A01 T00651104  RH  029%=      5-min Rain = 0
KUM1 011720Z 03007KT 07/M11 A304 RMK A01 T00651105  RH  028%=      5-min Rain = 0
KUM1 011721Z 03005KT 07/M11 A304 RMK A01 T00651106  RH  028%=      5-min Rain = 0
KUM1 011722Z 05004KT 06/M11 A304 RMK A01 T00631108  RH  028%=      5-min Rain = 0
KUM1 011723Z 02005KT 06/M10 A304 RMK A01 T00641103  RH  029%=      5-min Rain = 0
KUM1 011724Z 35008KT 07/M10 A304 RMK A01 T00671099  RH  029%=      5-min Rain = 0
KUM1 011725Z 35009KT 07/M10 A304 RMK A01 T00711102  RH  028%=      5-min Rain = 0
KUM1 011726Z 35007KT 07/M11 A304 RMK A01 T00671108  RH  027%=      5-min Rain = 0
KUM1 011727Z 02008KT 07/M11 A304 RMK A01 T00671107  RH  028%=      5-min Rain = 0
KUM1 011728Z 03010KT 07/M11 A304 RMK A01 T00671108  RH  027%=      5-min Rain = 0
KUM1 011729Z 03009KT 06/M11 A304 RMK A01 T00641110  RH  028%=      5-min Rain = 0
KUM1 011730Z 04007KT 07/M11 A304 RMK A01 T00651106  RH  028%=      5-min Rain = 0
KUM1 011731Z 03006KT 07/M11 A304 RMK A01 T00671108  RH  028%=      5-min Rain = 0
KUM1 011732Z 03003KT 06/M11 A304 RMK A01 T00641112  RH  027%=      5-min Rain = 0
KUM1 011733Z 02007KT 06/M11 A304 RMK A01 T00641107  RH  028%=      5-min Rain = 0
KUM1 011734Z 02008KT 07/M10 A304 RMK A01 T00681104  RH  028%=      5-min Rain = 0
KUM1 011735Z 00007KT 07/M11 A304 RMK A01 T00671105  RH  028%=      5-min Rain = 0
KUM1 011736Z 35009KT 07/M11 A304 RMK A01 T00661106  RH  028%=      5-min Rain = 0
KUM1 011737Z 00008KT 07/M10 A304 RMK A01 T00671103  RH  029%=      5-min Rain = 0
KUM1 011738Z 03008KT 07/M10 A304 RMK A01 T00701101  RH  028%=      5-min Rain = 0
KUM1 011739Z 01010KT 07/M10 A304 RMK A01 T00711102  RH  028%=      5-min Rain = 0
KUM1 011740Z 02008KT 07/M11 A304 RMK A01 T00711105  RH  027%=      5-min Rain = 0
KUM1 011741Z 02005KT 07/M11 A304 RMK A01 T00681107  RH  027%=      5-min Rain = 0
KUM1 011742Z 01009KT 07/M11 A304 RMK A01 T00671105  RH  028%=      5-min Rain = 0
KUM1 011743Z 00009KT 07/M11 A304 RMK A01 T00721105  RH  027%=      5-min Rain = 0
KUM1 011744Z 02012KT 07/M11 A304 RMK A01 T00701106  RH  027%=      5-min Rain = 0
KUM1 011745Z 01008KT 07/M10 A304 RMK A01 T00721102  RH  028%=      5-min Rain = 0
KUM1 011746Z 03007KT 07/M10 A304 RMK A01 T00731103  RH  027%=      5-min Rain = 0
KUM1 011747Z 02005KT 07/M11 A304 RMK A01 T00711106  RH  027%=      5-min Rain = 0
KUM1 011748Z 00005G10KT 07/M11 A304 RMK A01 T00701105  RH  027%=      5-min Rain = 0
KUM1 011749Z 04008KT 07/M10 A304 RMK A01 T00741102  RH  027%=      5-min Rain = 0
KUM1 011750Z 06007KT 08/M11 A304 RMK A01 T00791106  RH  026%=      5-min Rain = 0
KUM1 011751Z 06008KT 08/M11 A304 RMK A01 T00801109  RH  025%=      5-min Rain = 0
KUM1 011752Z 06008KT 08/M11 A304 RMK A01 T00781108  RH  025%=      5-min Rain = 0
KUM1 011753Z 04010KT 08/M11 A304 RMK A01 T00761110  RH  025%=      5-min Rain = 0
KUM1 011754Z 02009KT 08/M11 A304 RMK A01 T00761113  RH  025%=      5-min Rain = 0
KUM1 011755Z 03009KT 08/M12 A304 RMK A01 T00761119  RH  024%=      5-min Rain = 0
KUM1 011756Z 04008KT 08/M12 A304 RMK A01 T00751116  RH  024%=      5-min Rain = 0
KUM1 011757Z 03010KT 08/M11 A304 RMK A01 T00751113  RH  025%=      5-min Rain = 0
KUM1 011758Z 02009KT 07/M11 A304 RMK A01 T00731110  RH  026%=      5-min Rain = 0
KUM1 011759Z 04008KT 08/M10 A304 RMK A01 T00761102  RH  027%=      5-min Rain = 0
KUM1 011800Z 03007KT 09/M10 A304 RMK A01 T00851095  RH  027%=      5-min Rain = 0
KUM1 011801Z 04009KT 09/M10 A304 RMK A01 T00871101  RH  025%=      5-min Rain = 0
KUM1 011802Z 01008G13KT 09/M11 A304 RMK A01 T00851109  RH  024%=      5-min Rain = 0
KUM1 011803Z 02010KT 08/M11 A304 RMK A01 T00811113  RH  024%=      5-min Rain = 0
KUM1 011804Z 04007KT 08/M12 A304 RMK A01 T00761116  RH  024%=      5-min Rain = 0
KUM1 011805Z 02007KT 07/M11 A304 RMK A01 T00741113  RH  025%=      5-min Rain = 0
KUM1 011806Z 04010KT 08/M11 A304 RMK A01 T00751110  RH  026%=      5-min Rain = 0
KUM1 011807Z 03011KT 08/M11 A304 RMK A01 T00751111  RH  025%=      5-min Rain = 0
KUM1 011808Z 02013KT 08/M11 A304 RMK A01 T00781107  RH  026%=      5-min Rain = 0
KUM1 011809Z 01008KT 08/M11 A304 RMK A01 T00771113  RH  025%=      5-min Rain = 0
KUM1 011810Z 01009KT 07/M11 A304 RMK A01 T00741114  RH  025%=      5-min Rain = 0
KUM1 011811Z 01009KT 08/M11 A304 RMK A01 T00751110  RH  025%=      5-min Rain = 0
KUM1 011812Z 02009G14KT 08/M11 A304 RMK A01 T00751111  RH  025%=      5-min Rain = 0
KUM1 011813Z 04011KT 08/M11 A304 RMK A01 T00751113  RH  025%=      5-min Rain = 0
KUM1 011814Z 04012KT 08/M11 A304 RMK A01 T00781113  RH  024%=      5-min Rain = 0
KUM1 011815Z 03008KT 08/M12 A304 RMK A01 T00771117  RH  024%=      5-min Rain = 0
KUM1 011816Z 01009KT 08/M12 A304 RMK A01 T00751119  RH  024%=      5-min Rain = 0
KUM1 011817Z 05012KT 08/M12 A304 RMK A01 T00751116  RH  024%=      5-min Rain = 0
KUM1 011818Z 05013KT 08/M12 A304 RMK A01 T00821121  RH  022%=      5-min Rain = 0
KUM1 011819Z 05012KT 08/M14 A304 RMK A01 T00811139  RH  019%=      5-min Rain = 0
KUM1 011820Z 03012KT 08/M14 A304 RMK A01 T00791137  RH  020%=      5-min Rain = 0
KUM1 011821Z 03008KT 08/M13 A304 RMK A01 T00781134  RH  021%=      5-min Rain = 0
KUM1 011822Z 05009KT 08/M13 A304 RMK A01 T00821126  RH  022%=      5-min Rain = 0
KUM1 011823Z 05010KT 08/M12 A304 RMK A01 T00831124  RH  022%=      5-min Rain = 0
KUM1 011824Z 05009KT 08/M12 A304 RMK A01 T00801124  RH  022%=      5-min Rain = 0
KUM1 011825Z 04014KT 08/M12 A304 RMK A01 T00811123  RH  022%=      5-min Rain = 0
KUM1 011826Z 03014KT 08/M13 A304 RMK A01 T00801128  RH  021%=      5-min Rain = 0
KUM1 011827Z 03015KT 08/M13 A304 RMK A01 T00781129  RH  021%=      5-min Rain = 0
KUM1 011828Z 04012KT 08/M13 A304 RMK A01 T00791130  RH  021%=      5-min Rain = 0
KUM1 011829Z 05009KT 08/M13 A304 RMK A01 T00791133  RH  021%=      5-min Rain = 0
KUM1 011830Z 05008KT 08/M13 A304 RMK A01 T00791132  RH  021%=      5-min Rain = 0
KUM1 011831Z 06011KT 08/M13 A304 RMK A01 T00781131  RH  021%=      5-min Rain = 0
KUM1 011832Z 06012KT 08/M13 A304 RMK A01 T00801130  RH  021%=      5-min Rain = 0
KUM1 011833Z 06011KT 08/M14 A304 RMK A01 T00831137  RH  020%=      5-min Rain = 0
KUM1 011834Z 05010KT 08/M13 A304 RMK A01 T00841132  RH  020%=      5-min Rain = 0
KUM1 011835Z 05009KT 08/M13 A304 RMK A01 T00821128  RH  021%=      5-min Rain = 0
KUM1 011836Z 02009KT 08/M12 A304 RMK A01 T00831119  RH  023%=      5-min Rain = 0
KUM1 011837Z 01006KT 08/M12 A304 RMK A01 T00831121  RH  022%=      5-min Rain = 0
KUM1 011838Z 03008KT 08/M12 A304 RMK A01 T00841121  RH  022%=      5-min Rain = 0
KUM1 011839Z 03011KT 09/M12 A304 RMK A01 T00851122  RH  022%=      5-min Rain = 0
KUM1 011840Z 02011KT 08/M13 A304 RMK A01 T00841127  RH  021%=      5-min Rain = 0
KUM1 011841Z 04009KT 08/M13 A304 RMK A01 T00781134  RH  021%=      5-min Rain = 0
KUM1 011842Z 05010KT 08/M14 A304 RMK A01 T00761141  RH  020%=      5-min Rain = 0
KUM1 011843Z 05009KT 08/M14 A304 RMK A01 T00761144  RH  019%=      5-min Rain = 0
KUM1 011844Z 03012G19KT 08/M14 A304 RMK A01 T00761143  RH  019%=      5-min Rain = 0
KUM1 011845Z 02015G20KT 08/M14 A304 RMK A01 T00771135  RH  021%=      5-min Rain = 0
KUM1 011846Z 02011KT 08/M14 A304 RMK A01 T00781138  RH  020%=      5-min Rain = 0
KUM1 011847Z 02010KT 08/M14 A304 RMK A01 T00771139  RH  020%=      5-min Rain = 0
KUM1 011848Z 00010KT 08/M14 A304 RMK A01 T00771137  RH  020%=      5-min Rain = 0
KUM1 011849Z 00008KT 08/M14 A3039 RMK A01 T00771135  RH  021%=      5-min Rain = 0
KUM1 011850Z 36008KT 08/M14 A3039 RMK A01 T00771136  RH  020%=      5-min Rain = 0
KUM1 011851Z 01008G13KT 08/M13 A3039 RMK A01 T00791132  RH  021%=      5-min Rain = 0
KUM1 011852Z 05010KT 08/M13 A3039 RMK A01 T00791132  RH  021%=      5-min Rain = 0
KUM1 011853Z 03015KT 08/M13 A304 RMK A01 T00801132  RH  021%=      5-min Rain = 0
KUM1 011854Z 01013KT 08/M13 A3039 RMK A01 T00821132  RH  020%=      5-min Rain = 0
KUM1 011855Z 02014KT 08/M14 A3039 RMK A01 T00811135  RH  020%=      5-min Rain = 0
KUM1 011856Z 04012KT 08/M14 A3039 RMK A01 T00821135  RH  020%=      5-min Rain = 0
KUM1 011857Z 04011KT 09/M13 A3039 RMK A01 T00861130  RH  020%=      5-min Rain = 0
KUM1 011858Z 03011KT 09/M13 A3039 RMK A01 T00881134  RH  019%=      5-min Rain = 0
KUM1 011859Z 03008KT 08/M15 A3039 RMK A01 T00831148  RH  018%=      5-min Rain = 0
KUM1 011900Z 04010KT 08/M15 A3039 RMK A01 T00791153  RH  018%=      5-min Rain = 0
KUM1 011901Z 04011KT 08/M15 A3039 RMK A01 T00811146  RH  018%=      5-min Rain = 0
KUM1 011902Z 05009KT 08/M14 A3039 RMK A01 T00821139  RH  019%=      5-min Rain = 0
KUM1 011903Z 04006KT 08/M14 A3039 RMK A01 T00811141  RH  019%=      5-min Rain = 0
KUM1 011904Z 05005KT 08/M14 A3039 RMK A01 T00791141  RH  019%=      5-min Rain = 0
KUM1 011905Z 05005KT 08/M14 A3039 RMK A01 T00801137  RH  020%=      5-min Rain = 0
KUM1 011906Z 05006KT 08/M14 A3039 RMK A01 T00801135  RH  020%=      5-min Rain = 0
KUM1 011907Z 03010G15KT 08/M13 A3039 RMK A01 T00791132  RH  021%=      5-min Rain = 0
KUM1 011908Z 01008KT 08/M13 A3039 RMK A01 T00791132  RH  021%=      5-min Rain = 0
KUM1 011909Z 05009KT 08/M13 A3039 RMK A01 T00791129  RH  021%=      5-min Rain = 0
KUM1 011910Z 06010G15KT 09/M13 A3039 RMK A01 T00851131  RH  020%=      5-min Rain = 0
KUM1 011911Z 03014KT 09/M13 A3039 RMK A01 T00881129  RH  020%=      5-min Rain = 0
KUM1 011912Z 04013KT 09/M13 A3039 RMK A01 T00881129  RH  020%=      5-min Rain = 0
KUM1 011913Z 04008KT 09/M13 A3039 RMK A01 T00861128  RH  021%=      5-min Rain = 0
KUM1 011914Z 03007KT 09/M13 A3039 RMK A01 T00861126  RH  021%=      5-min Rain = 0
KUM1 011915Z 02007KT 09/M13 A3039 RMK A01 T00861129  RH  020%=      5-min Rain = 0
KUM1 011916Z 01010KT 08/M13 A3038 RMK A01 T00841132  RH  020%=      5-min Rain = 0
KUM1 011917Z 36009KT 08/M13 A3038 RMK A01 T00831132  RH  020%=      5-min Rain = 0
KUM1 011918Z 35007KT 08/M13 A3038 RMK A01 T00841133  RH  020%=      5-min Rain = 0
KUM1 011919Z 01009KT 08/M13 A3038 RMK A01 T00841132  RH  020%=      5-min Rain = 0
KUM1 011920Z 36007KT 09/M13 A3038 RMK A01 T00851127  RH  021%=      5-min Rain = 0
KUM1 011921Z 01006KT 09/M13 A3038 RMK A01 T00851126  RH  021%=      5-min Rain = 0
KUM1 011922Z 01009KT 09/M13 A3038 RMK A01 T00851126  RH  021%=      5-min Rain = 0
KUM1 011923Z 02009KT 09/M13 A3038 RMK A01 T00861126  RH  021%=      5-min Rain = 0
KUM1 011924Z 02008KT 09/M13 A3038 RMK A01 T00861127  RH  021%=      5-min Rain = 0
KUM1 011925Z 04008KT 09/M13 A3038 RMK A01 T00871126  RH  021%=      5-min Rain = 0
KUM1 011926Z 04010G15KT 09/M13 A3038 RMK A01 T00861129  RH  020%=      5-min Rain = 0
KUM1 011927Z 03012KT 09/M13 A3038 RMK A01 T00871126  RH  021%=      5-min Rain = 0
KUM1 011928Z 02008KT 09/M13 A3038 RMK A01 T00851126  RH  021%=      5-min Rain = 0
KUM1 011929Z 36005KT 08/M13 A3038 RMK A01 T00811129  RH  021%=      5-min Rain = 0
KUM1 011930Z 02005KT 08/M13 A3038 RMK A01 T00811128  RH  021%=      5-min Rain = 0
KUM1 011931Z 03010KT 08/M12 A3038 RMK A01 T00841124  RH  021%=      5-min Rain = 0
KUM1 011932Z 02007KT 09/M13 A3038 RMK A01 T00861129  RH  020%=      5-min Rain = 0
KUM1 011933Z 04007KT 08/M13 A3038 RMK A01 T00841134  RH  020%=      5-min Rain = 0
KUM1 011934Z 04008KT 08/M13 A3038 RMK A01 T00821134  RH  020%=      5-min Rain = 0
KUM1 011935Z 04009KT 09/M13 A3038 RMK A01 T00851129  RH  020%=      5-min Rain = 0
KUM1 011936Z 04011G16KT 09/M13 A3038 RMK A01 T00901125  RH  020%=      5-min Rain = 0
KUM1 011937Z 04011KT 09/M13 A3038 RMK A01 T00931126  RH  020%=      5-min Rain = 0
KUM1 011938Z 03010KT 09/M13 A3038 RMK A01 T00921126  RH  020%=      5-min Rain = 0
KUM1 011939Z 03013KT 09/M13 A3038 RMK A01 T00911125  RH  020%=      5-min Rain = 0
KUM1 011940Z 03010KT 09/M13 A3038 RMK A01 T00871129  RH  020%=      5-min Rain = 0
KUM1 011941Z 04010KT 09/M13 A3038 RMK A01 T00861127  RH  021%=      5-min Rain = 0
KUM1 011942Z 05008KT 09/M13 A3038 RMK A01 T00861126  RH  021%=      5-min Rain = 0
KUM1 011943Z 06006KT 09/M13 A3037 RMK A01 T00861127  RH  021%=      5-min Rain = 0
KUM1 011944Z 07005KT 08/M13 A3037 RMK A01 T00841130  RH  021%=      5-min Rain = 0
KUM1 011945Z 04007KT 08/M13 A3037 RMK A01 T00831130  RH  021%=      5-min Rain = 0
KUM1 011946Z 04004KT 08/M13 A3037 RMK A01 T00831129  RH  021%=      5-min Rain = 0
KUM1 011947Z 05006KT 08/M13 A3037 RMK A01 T00821132  RH  020%=      5-min Rain = 0
KUM1 011948Z 05008KT 08/M13 A3037 RMK A01 T00841126  RH  021%=      5-min Rain = 0
KUM1 011949Z 04009KT 09/M13 A3037 RMK A01 T00861127  RH  021%=      5-min Rain = 0
KUM1 011950Z 03009KT 09/M13 A3037 RMK A01 T00871128  RH  020%=      5-min Rain = 0
KUM1 011951Z 00009KT 09/M13 A3037 RMK A01 T00851128  RH  021%=      5-min Rain = 0
KUM1 011952Z 00007KT 08/M13 A3037 RMK A01 T00841129  RH  021%=      5-min Rain = 0
KUM1 011953Z 33005KT 08/M13 A3037 RMK A01 T00821131  RH  021%=      5-min Rain = 0
KUM1 011954Z 33005KT 08/M13 A3037 RMK A01 T00811130  RH  021%=      5-min Rain = 0
KUM1 011955Z 30002KT 08/M13 A3037 RMK A01 T00811131  RH  021%=      5-min Rain = 0
KUM1 011956Z 34001KT 08/M13 A3037 RMK A01 T00811129  RH  021%=      5-min Rain = 0
KUM1 011957Z 34006G11KT 08/M13 A3037 RMK A01 T00841125  RH  021%=      5-min Rain = 0
KUM1 011958Z 35006KT 09/M12 A3037 RMK A01 T00881121  RH  021%=      5-min Rain = 0
KUM1 011959Z 35010KT 09/M12 A3037 RMK A01 T00911122  RH  021%=      5-min Rain = 0
KUM1 012000Z 02010KT 09/M12 A3037 RMK A01 T00911123  RH  021%=      5-min Rain = 0
KUM1 012001Z 02011KT 09/M12 A3037 RMK A01 T00911121  RH  021%=      5-min Rain = 0
KUM1 012002Z 04013KT 09/M12 A3037 RMK A01 T00921120  RH  021%=      5-min Rain = 0
KUM1 012003Z 04012KT 09/M12 A3037 RMK A01 T00921121  RH  021%=      5-min Rain = 0
KUM1 012004Z 04010KT 09/M12 A3037 RMK A01 T00901122  RH  021%=      5-min Rain = 0
KUM1 012005Z 03010KT 09/M12 A3037 RMK A01 T00891122  RH  021%=      5-min Rain = 0
KUM1 012006Z 03006KT 09/M12 A3037 RMK A01 T00891121  RH  021%=      5-min Rain = 0
KUM1 012007Z 05005KT 09/M12 A3037 RMK A01 T00871123  RH  021%=      5-min Rain = 0
KUM1 012008Z 05004KT 09/M13 A3036 RMK A01 T00851126  RH  021%=      5-min Rain = 0
KUM1 012009Z 06008KT 08/M12 A3036 RMK A01 T00841124  RH  022%=      5-min Rain = 0
KUM1 012010Z 06008KT 09/M12 A3036 RMK A01 T00881120  RH  022%=      5-min Rain = 0
KUM1 012011Z 07006KT 09/M12 A3036 RMK A01 T00881124  RH  021%=      5-min Rain = 0
KUM1 012012Z 07006KT 09/M13 A3036 RMK A01 T00861125  RH  021%=      5-min Rain = 0
KUM1 012013Z 03005KT 09/M12 A3036 RMK A01 T00861124  RH  021%=      5-min Rain = 0
KUM1 012014Z 36008KT 09/M12 A3036 RMK A01 T00881119  RH  022%=      5-min Rain = 0
KUM1 012015Z 33003KT 09/M13 A3036 RMK A01 T00871126  RH  021%=      5-min Rain = 0
KUM1 012016Z 27001KT 09/M13 A3036 RMK A01 T00851128  RH  021%=      5-min Rain = 0
KUM1 012017Z 03001KT 08/M13 A3036 RMK A01 T00841129  RH  021%=      5-min Rain = 0
KUM1 012018Z 03001KT 08/M13 A3036 RMK A01 T00841126  RH  021%=      5-min Rain = 0
KUM1 012019Z 35000KT 09/M12 A3036 RMK A01 T00861121  RH  022%=      5-min Rain = 0
KUM1 012020Z 35001KT 09/M12 A3036 RMK A01 T00881122  RH  021%=      5-min Rain = 0
KUM1 012021Z 01004G9KT 09/M12 A3036 RMK A01 T00891123  RH  021%=      5-min Rain = 0
KUM1 012022Z 07006KT 09/M12 A3036 RMK A01 T00901120  RH  021%=      5-min Rain = 0
KUM1 012023Z 04007KT 09/M12 A3036 RMK A01 T00931120  RH  021%=      5-min Rain = 0
KUM1 012024Z 04007KT 09/M12 A3036 RMK A01 T00921124  RH  020%=      5-min Rain = 0
KUM1 012025Z 02004KT 09/M13 A3036 RMK A01 T00891127  RH  020%=      5-min Rain = 0
KUM1 012026Z 01008KT 09/M13 A3036 RMK A01 T00871125  RH  021%=      5-min Rain = 0
KUM1 012027Z 01009KT 09/M13 A3036 RMK A01 T00881127  RH  020%=      5-min Rain = 0
KUM1 012028Z 01010KT 09/M13 A3036 RMK A01 T00921127  RH  020%=      5-min Rain = 0
KUM1 012029Z 03006KT 09/M13 A3036 RMK A01 T00911130  RH  019%=      5-min Rain = 0
KUM1 012030Z 03007KT 09/M13 A3036 RMK A01 T00911127  RH  020%=      5-min Rain = 0
KUM1 012031Z 02005KT 09/M13 A3036 RMK A01 T00911131  RH  019%=      5-min Rain = 0
KUM1 012032Z 02006KT 09/M13 A3036 RMK A01 T00891131  RH  020%=      5-min Rain = 0
KUM1 012033Z 36005G10KT 09/M13 A3036 RMK A01 T00891127  RH  020%=      5-min Rain = 0
KUM1 012034Z 34008KT 09/M13 A3036 RMK A01 T00911125  RH  020%=      5-min Rain = 0
KUM1 012035Z 32004KT 09/M13 A3036 RMK A01 T00891131  RH  020%=      5-min Rain = 0
KUM1 012036Z 34005KT 09/M13 A3036 RMK A01 T00871131  RH  020%=      5-min Rain = 0
KUM1 012037Z 35003KT 09/M13 A3036 RMK A01 T00861131  RH  020%=      5-min Rain = 0
KUM1 012038Z 34003KT 09/M13 A3036 RMK A01 T00861130  RH  020%=      5-min Rain = 0
KUM1 012039Z 34005KT 09/M13 A3036 RMK A01 T00891125  RH  021%=      5-min Rain = 0
KUM1 012040Z 35009KT 09/M13 A3036 RMK A01 T00911126  RH  020%=      5-min Rain = 0
KUM1 012041Z 36011KT 09/M13 A3036 RMK A01 T00921125  RH  020%=      5-min Rain = 0
KUM1 012042Z 00008KT 09/M13 A3036 RMK A01 T00921127  RH  020%=      5-min Rain = 0
KUM1 012043Z 01007KT 09/M13 A3036 RMK A01 T00911126  RH  020%=      5-min Rain = 0
KUM1 012044Z 36005KT 09/M13 A3036 RMK A01 T00881127  RH  020%=      5-min Rain = 0
KUM1 012045Z 33001KT 09/M13 A3035 RMK A01 T00881128  RH  020%=      5-min Rain = 0
KUM1 012046Z 03001KT 09/M13 A3035 RMK A01 T00881126  RH  020%=      5-min Rain = 0
KUM1 012047Z 25001KT 09/M13 A3035 RMK A01 T00901126  RH  020%=      5-min Rain = 0
KUM1 012048Z 31003KT 09/M12 A3035 RMK A01 T00911123  RH  021%=      5-min Rain = 0
KUM1 012049Z 34005KT 09/M12 A3035 RMK A01 T00931124  RH  020%=      5-min Rain = 0
KUM1 012050Z 36012KT 09/M13 A3035 RMK A01 T00941126  RH  020%=      5-min Rain = 0
KUM1 012051Z 34010KT 09/M13 A3035 RMK A01 T00941129  RH  019%=      5-min Rain = 0
KUM1 012052Z 34010KT 10/M13 A3035 RMK A01 T00951129  RH  019%=      5-min Rain = 0
KUM1 012053Z 34008G13KT 10/M13 A3035 RMK A01 T00961125  RH  020%=      5-min Rain = 0
KUM1 012054Z 34012KT 10/M12 A3035 RMK A01 T00981124  RH  020%=      5-min Rain = 0
KUM1 012055Z 33010KT 10/M12 A3035 RMK A01 T00991123  RH  020%=      5-min Rain = 0
KUM1 012056Z 31008KT 10/M13 A3035 RMK A01 T00981125  RH  019%=      5-min Rain = 0
KUM1 012057Z 29005KT 10/M13 A3035 RMK A01 T00951129  RH  019%=      5-min Rain = 0
KUM1 012058Z 28004KT 09/M13 A3035 RMK A01 T00921129  RH  020%=      5-min Rain = 0
KUM1 012059Z 31005KT 09/M13 A3035 RMK A01 T00911126  RH  020%=      5-min Rain = 0
KUM1 012100Z 01007KT 09/M12 A3035 RMK A01 T00921123  RH  020%=      5-min Rain = 0
KUM1 012101Z 02009KT 09/M12 A3035 RMK A01 T00921124  RH  020%=      5-min Rain = 0
KUM1 012102Z 03006KT 09/M12 A3036 RMK A01 T00921124  RH  020%=      5-min Rain = 0
KUM1 012103Z 02004KT 09/M13 A3035 RMK A01 T00911126  RH  020%=      5-min Rain = 0
KUM1 012104Z 01007KT 09/M13 A3035 RMK A01 T00901125  RH  021%=      5-min Rain = 0
KUM1 012105Z 01005KT 09/M12 A3036 RMK A01 T00901124  RH  021%=      5-min Rain = 0
KUM1 012106Z 05004KT 09/M13 A3035 RMK A01 T00871127  RH  021%=      5-min Rain = 0
KUM1 012107Z 05003KT 09/M13 A3035 RMK A01 T00861125  RH  021%=      5-min Rain = 0
KUM1 012108Z 06002KT 09/M12 A3035 RMK A01 T00871124  RH  021%=      5-min Rain = 0
KUM1 012109Z 05003KT 09/M12 A3035 RMK A01 T00881121  RH  021%=      5-min Rain = 0
KUM1 012110Z 04002KT 09/M12 A3035 RMK A01 T00901119  RH  022%=      5-min Rain = 0
KUM1 012111Z 06002KT 09/M12 A3035 RMK A01 T00901121  RH  021%=      5-min Rain = 0
KUM1 012112Z 05005KT 09/M12 A3035 RMK A01 T00901118  RH  022%=      5-min Rain = 0
KUM1 012113Z 04006KT 09/M12 A3035 RMK A01 T00911120  RH  021%=      5-min Rain = 0
KUM1 012114Z 02008KT 09/M12 A3035 RMK A01 T00911118  RH  021%=      5-min Rain = 0
KUM1 012115Z 02008KT 09/M12 A3035 RMK A01 T00931115  RH  022%=      5-min Rain = 0
KUM1 012116Z 35008KT 09/M12 A3035 RMK A01 T00921116  RH  022%=      5-min Rain = 0
KUM1 012117Z 34008KT 09/M12 A3035 RMK A01 T00921116  RH  022%=      5-min Rain = 0
KUM1 012118Z 34007KT 09/M12 A3035 RMK A01 T00931116  RH  022%=      5-min Rain = 0
KUM1 012119Z 34006KT 09/M12 A3035 RMK A01 T00931117  RH  021%=      5-min Rain = 0
KUM1 012120Z 03002KT 09/M12 A3035 RMK A01 T00911118  RH  022%=      5-min Rain = 0
KUM1 012121Z 03002KT 09/M12 A3035 RMK A01 T00911117  RH  022%=      5-min Rain = 0
KUM1 012122Z 35003KT 09/M12 A3035 RMK A01 T00911116  RH  022%=      5-min Rain = 0
KUM1 012123Z 36004KT 09/M12 A3035 RMK A01 T00931115  RH  022%=      5-min Rain = 0
KUM1 012124Z 33002KT 09/M12 A3035 RMK A01 T00911117  RH  022%=      5-min Rain = 0
KUM1 012125Z 26001KT 09/M12 A3035 RMK A01 T00911117  RH  022%=      5-min Rain = 0
KUM1 012126Z 24003KT 09/M12 A3035 RMK A01 T00921116  RH  022%=      5-min Rain = 0
KUM1 012127Z 24004KT 10/M11 A3035 RMK A01 T00951114  RH  022%=      5-min Rain = 0
KUM1 012128Z 26004KT 10/M12 A3035 RMK A01 T00961116  RH  021%=      5-min Rain = 0
KUM1 012129Z 26003KT 10/M11 A3035 RMK A01 T00971114  RH  021%=      5-min Rain = 0
KUM1 012130Z 27003KT 10/M11 A3035 RMK A01 T01011112  RH  021%=      5-min Rain = 0
KUM1 012131Z 32001KT 10/M11 A3035 RMK A01 T01011114  RH  021%=      5-min Rain = 0
KUM1 012132Z 35004KT 10/M11 A3035 RMK A01 T01021114  RH  021%=      5-min Rain = 0
KUM1 012133Z 35004KT 10/M12 A3035 RMK A01 T01021116  RH  020%=      5-min Rain = 0
KUM1 012134Z 33008KT 10/M12 A3035 RMK A01 T01011115  RH  021%=      5-min Rain = 0
KUM1 012135Z 33007KT 10/M11 A3035 RMK A01 T01031114  RH  021%=      5-min Rain = 0
KUM1 012136Z 01005KT 10/M12 A3035 RMK A01 T00991118  RH  020%=      5-min Rain = 0
KUM1 012137Z 04004KT 10/M12 A3035 RMK A01 T00971116  RH  021%=      5-min Rain = 0
KUM1 012138Z 03004KT 10/M12 A3035 RMK A01 T00961115  RH  021%=      5-min Rain = 0
KUM1 012139Z 02002KT 09/M12 A3035 RMK A01 T00941118  RH  021%=      5-min Rain = 0
KUM1 012140Z 06003KT 09/M12 A3035 RMK A01 T00931116  RH  021%=      5-min Rain = 0
KUM1 012141Z 07004KT 09/M12 A3035 RMK A01 T00931116  RH  022%=      5-min Rain = 0
KUM1 012142Z 06002KT 09/M12 A3035 RMK A01 T00931117  RH  021%=      5-min Rain = 0
KUM1 012143Z 04004KT 09/M12 A3034 RMK A01 T00931116  RH  022%=      5-min Rain = 0
KUM1 012144Z 03003KT 09/M12 A3034 RMK A01 T00931116  RH  022%=      5-min Rain = 0
KUM1 012145Z 01003KT 09/M12 A3034 RMK A01 T00931116  RH  022%=      5-min Rain = 0
KUM1 012146Z 34006KT 10/M11 A3034 RMK A01 T00961112  RH  022%=      5-min Rain = 0
KUM1 012147Z 34006KT 10/M11 A3034 RMK A01 T01001110  RH  022%=      5-min Rain = 0
KUM1 012148Z 34003KT 10/M11 A3034 RMK A01 T01001113  RH  021%=      5-min Rain = 0
KUM1 012149Z 32006KT 10/M11 A3034 RMK A01 T00991114  RH  021%=      5-min Rain = 0
KUM1 012150Z 31005KT 10/M11 A3034 RMK A01 T00991112  RH  021%=      5-min Rain = 0
KUM1 012151Z 31006KT 10/M11 A3034 RMK A01 T00991113  RH  021%=      5-min Rain = 0
KUM1 012152Z 30004KT 10/M11 A3034 RMK A01 T00981113  RH  021%=      5-min Rain = 0
KUM1 012153Z 29004KT 10/M12 A3034 RMK A01 T00971115  RH  021%=      5-min Rain = 0
KUM1 012154Z 30004KT 10/M12 A3034 RMK A01 T00961115  RH  021%=      5-min Rain = 0
KUM1 012155Z 32005KT 10/M12 A3034 RMK A01 T00981115  RH  021%=      5-min Rain = 0
KUM1 012156Z 32008KT 10/M12 A3034 RMK A01 T00991116  RH  021%=      5-min Rain = 0
KUM1 012157Z 31008KT 10/M12 A3034 RMK A01 T01011116  RH  021%=      5-min Rain = 0
KUM1 012158Z 28005KT 10/M12 A3034 RMK A01 T00991118  RH  020%=      5-min Rain = 0
KUM1 012159Z 27003KT 10/M12 A3034 RMK A01 T00971120  RH  020%=      5-min Rain = 0
KUM1 012200Z 29002KT 10/M12 A3034 RMK A01 T00971120  RH  020%=      5-min Rain = 0
KUM1 012201Z 32004KT 10/M12 A3034 RMK A01 T00971119  RH  021%=      5-min Rain = 0
KUM1 012202Z 33007KT 10/M12 A3034 RMK A01 T01011119  RH  020%=      5-min Rain = 0
KUM1 012203Z 35008KT 10/M12 A3034 RMK A01 T01041120  RH  019%=      5-min Rain = 0
KUM1 012204Z 01006KT 10/M13 A3034 RMK A01 T01031125  RH  019%=      5-min Rain = 0
KUM1 012205Z 00003KT 10/M13 A3034 RMK A01 T01011127  RH  019%=      5-min Rain = 0
KUM1 012206Z 36005KT 10/M13 A3034 RMK A01 T00981127  RH  019%=      5-min Rain = 0
KUM1 012207Z 35008KT 10/M13 A3034 RMK A01 T00971126  RH  019%=      5-min Rain = 0
KUM1 012208Z 35012KT 10/M13 A3034 RMK A01 T00981126  RH  019%=      5-min Rain = 0
KUM1 012209Z 00009KT 10/M13 A3034 RMK A01 T01001125  RH  019%=      5-min Rain = 0
KUM1 012210Z 00007KT 10/M13 A3034 RMK A01 T00991127  RH  019%=      5-min Rain = 0
KUM1 012211Z 34008KT 10/M13 A3034 RMK A01 T00981127  RH  019%=      5-min Rain = 0
KUM1 012212Z 35008KT 10/M13 A3034 RMK A01 T00981127  RH  019%=      5-min Rain = 0
KUM1 012213Z 34007KT 10/M13 A3034 RMK A01 T00971127  RH  019%=      5-min Rain = 0
KUM1 012214Z 35006KT 10/M13 A3034 RMK A01 T00961127  RH  019%=      5-min Rain = 0
KUM1 012215Z 00005KT 10/M13 A3034 RMK A01 T00951128  RH  019%=      5-min Rain = 0
KUM1 012216Z 34004KT 09/M13 A3034 RMK A01 T00931129  RH  019%=      5-min Rain = 0
KUM1 012217Z 01004KT 09/M13 A3034 RMK A01 T00931129  RH  019%=      5-min Rain = 0
KUM1 012218Z 35004KT 09/M13 A3034 RMK A01 T00921129  RH  020%=      5-min Rain = 0
KUM1 012219Z 01002KT 09/M13 A3034 RMK A01 T00921129  RH  020%=      5-min Rain = 0
KUM1 012220Z 36000KT 09/M13 A3034 RMK A01 T00921127  RH  020%=      5-min Rain = 0
KUM1 012221Z 34001KT 09/M13 A3034 RMK A01 T00931127  RH  020%=      5-min Rain = 0
KUM1 012222Z 05001KT 09/M13 A3034 RMK A01 T00931126  RH  020%=      5-min Rain = 0
KUM1 012223Z 35007G15KT 09/M13 A3033 RMK A01 T00941126  RH  020%=      5-min Rain = 0
KUM1 012224Z 33006KT 10/M12 A3034 RMK A01 T00971124  RH  020%=      5-min Rain = 0
KUM1 012225Z 34007KT 10/M12 A3034 RMK A01 T01011123  RH  019%=      5-min Rain = 0
KUM1 012226Z 35004KT 10/M13 A3034 RMK A01 T00991129  RH  019%=      5-min Rain = 0
KUM1 012227Z 35005KT 10/M13 A3034 RMK A01 T00971130  RH  019%=      5-min Rain = 0
KUM1 012228Z 00004KT 10/M13 A3034 RMK A01 T00971127  RH  019%=      5-min Rain = 0
KUM1 012229Z 01003KT 10/M13 A3034 RMK A01 T00971127  RH  019%=      5-min Rain = 0
KUM1 012230Z 02001KT 10/M13 A3034 RMK A01 T00961126  RH  019%=      5-min Rain = 0
KUM1 012231Z 23003KT 10/M13 A3034 RMK A01 T00971127  RH  019%=      5-min Rain = 0
KUM1 012232Z 23003KT 10/M13 A3033 RMK A01 T00981128  RH  019%=      5-min Rain = 0
KUM1 012233Z 20003KT 10/M13 A3033 RMK A01 T00981127  RH  019%=      5-min Rain = 0
KUM1 012234Z 20003KT 10/M13 A3033 RMK A01 T01001127  RH  019%=      5-min Rain = 0
KUM1 012235Z 20003KT 10/M13 A3033 RMK A01 T00991129  RH  019%=      5-min Rain = 0
KUM1 012236Z 19003KT 10/M13 A3033 RMK A01 T00981127  RH  019%=      5-min Rain = 0
KUM1 012237Z 25002KT 10/M13 A3033 RMK A01 T00991125  RH  019%=      5-min Rain = 0
KUM1 012238Z 30004KT 10/M13 A3033 RMK A01 T00991126  RH  019%=      5-min Rain = 0
KUM1 012239Z 00003KT 10/M13 A3033 RMK A01 T01001126  RH  019%=      5-min Rain = 0
KUM1 012240Z 02005KT 10/M12 A3033 RMK A01 T01011124  RH  019%=      5-min Rain = 0
KUM1 012241Z 00007KT 10/M13 A3033 RMK A01 T01011127  RH  019%=      5-min Rain = 0
KUM1 012242Z 34007KT 10/M13 A3033 RMK A01 T01001127  RH  019%=      5-min Rain = 0
KUM1 012243Z 34008KT 10/M13 A3033 RMK A01 T01021127  RH  019%=      5-min Rain = 0
KUM1 012244Z 35010KT 10/M13 A3033 RMK A01 T01041128  RH  018%=      5-min Rain = 0
KUM1 012245Z 35010KT 10/M13 A3033 RMK A01 T01041130  RH  018%=      5-min Rain = 0
KUM1 012246Z 35009KT 10/M14 A3033 RMK A01 T01021135  RH  017%=      5-min Rain = 0
KUM1 012247Z 35010KT 10/M13 A3033 RMK A01 T01011133  RH  018%=      5-min Rain = 0
KUM1 012248Z 36009KT 10/M13 A3033 RMK A01 T01011132  RH  018%=      5-min Rain = 0
KUM1 012249Z 35008KT 10/M13 A3033 RMK A01 T01031129  RH  018%=      5-min Rain = 0
KUM1 012250Z 35007KT 10/M13 A3033 RMK A01 T01031130  RH  018%=      5-min Rain = 0
KUM1 012251Z 00009KT 10/M13 A3033 RMK A01 T01021130  RH  018%=      5-min Rain = 0
KUM1 012252Z 00007KT 10/M13 A3033 RMK A01 T01011130  RH  018%=      5-min Rain = 0
KUM1 012253Z 02006KT 10/M13 A3033 RMK A01 T00981132  RH  018%=      5-min Rain = 0
KUM1 012254Z 03006KT 10/M13 A3033 RMK A01 T00971131  RH  019%=      5-min Rain = 0
KUM1 012255Z 34007KT 10/M13 A3033 RMK A01 T00971130  RH  019%=      5-min Rain = 0
KUM1 012256Z 33006KT 10/M13 A3033 RMK A01 T00991128  RH  019%=      5-min Rain = 0
KUM1 012257Z 32004KT 10/M13 A3033 RMK A01 T00991130  RH  019%=      5-min Rain = 0
KUM1 012258Z 34004KT 10/M13 A3033 RMK A01 T00961132  RH  019%=      5-min Rain = 0
KUM1 012259Z 34004KT 10/M13 A3033 RMK A01 T00961131  RH  019%=      5-min Rain = 0
KUM1 012300Z 03004KT 10/M13 A3033 RMK A01 T00981128  RH  019%=      5-min Rain = 0
KUM1 012301Z 04002KT 10/M13 A3033 RMK A01 T00971131  RH  019%=      5-min Rain = 0
KUM1 012302Z 36002KT 10/M13 A3033 RMK A01 T00961130  RH  019%=      5-min Rain = 0
KUM1 012303Z 34003KT 10/M13 A3033 RMK A01 T00971128  RH  019%=      5-min Rain = 0
KUM1 012304Z 34001KT 10/M13 A3033 RMK A01 T00971130  RH  019%=      5-min Rain = 0
KUM1 012305Z 34001KT 10/M13 A3033 RMK A01 T00981130  RH  019%=      5-min Rain = 0
KUM1 012306Z 32003KT 10/M13 A3033 RMK A01 T00981129  RH  019%=      5-min Rain = 0
KUM1 012307Z 35004KT 10/M13 A3033 RMK A01 T00981129  RH  019%=      5-min Rain = 0
KUM1 012308Z 35003KT 10/M13 A3033 RMK A01 T00971130  RH  019%=      5-min Rain = 0
KUM1 012309Z 01000KT 10/M13 A3033 RMK A01 T00971130  RH  019%=      5-min Rain = 0
KUM1 012310Z 35002KT 10/M13 A3033 RMK A01 T00981127  RH  019%=      5-min Rain = 0
KUM1 012311Z 00007KT 10/M13 A3033 RMK A01 T00991127  RH  019%=      5-min Rain = 0
KUM1 012312Z 35007KT 10/M13 A3033 RMK A01 T00991130  RH  019%=      5-min Rain = 0
KUM1 012313Z 01005KT 10/M13 A3033 RMK A01 T00971132  RH  018%=      5-min Rain = 0
KUM1 012314Z 01004KT 10/M13 A3033 RMK A01 T00951133  RH  019%=      5-min Rain = 0
KUM1 012315Z 35005KT 09/M13 A3033 RMK A01 T00941132  RH  019%=      5-min Rain = 0
KUM1 012316Z 34004KT 10/M13 A3033 RMK A01 T00951131  RH  019%=      5-min Rain = 0
KUM1 012317Z 35001KT 10/M13 A3033 RMK A01 T00951132  RH  019%=      5-min Rain = 0
KUM1 012318Z 27002KT 09/M13 A3033 RMK A01 T00941132  RH  019%=      5-min Rain = 0
KUM1 012319Z 28002KT 10/M13 A3033 RMK A01 T00951131  RH  019%=      5-min Rain = 0
KUM1 012320Z 29001KT 10/M13 A3033 RMK A01 T00971131  RH  019%=      5-min Rain = 0
KUM1 012321Z 32001KT 10/M13 A3033 RMK A01 T00971132  RH  018%=      5-min Rain = 0
KUM1 012322Z 28001KT 10/M13 A3033 RMK A01 T00991129  RH  019%=      5-min Rain = 0
KUM1 012323Z 30004KT 10/M13 A3033 RMK A01 T01001130  RH  018%=      5-min Rain = 0
KUM1 012324Z 30007KT 10/M13 A3033 RMK A01 T01011130  RH  018%=      5-min Rain = 0
KUM1 012325Z 30008KT 10/M13 A3033 RMK A01 T01021130  RH  018%=      5-min Rain = 0
KUM1 012326Z 31007KT 10/M13 A3033 RMK A01 T01011131  RH  018%=      5-min Rain = 0
KUM1 012327Z 30006KT 10/M13 A3033 RMK A01 T01011131  RH  018%=      5-min Rain = 0
KUM1 012328Z 31004KT 10/M13 A3033 RMK A01 T01001132  RH  018%=      5-min Rain = 0
KUM1 012329Z 31006KT 10/M13 A3033 RMK A01 T01001132  RH  018%=      5-min Rain = 0
KUM1 012330Z 31006KT 10/M13 A3033 RMK A01 T01001133  RH  018%=      5-min Rain = 0
KUM1 012331Z 31006KT 10/M13 A3033 RMK A01 T01001133  RH  018%=      5-min Rain = 0
KUM1 012332Z 31006KT 10/M13 A3033 RMK A01 T01001133  RH  018%=      5-min Rain = 0
KUM1 012333Z 31005KT 10/M13 A3033 RMK A01 T01001133  RH  018%=      5-min Rain = 0
KUM1 012334Z 34005KT 10/M13 A3033 RMK A01 T01011130  RH  018%=      5-min Rain = 0
KUM1 012335Z 00007KT 10/M13 A3033 RMK A01 T01001127  RH  019%=      5-min Rain = 0
KUM1 012336Z 33006KT 10/M13 A3033 RMK A01 T01001127  RH  019%=      5-min Rain = 0
KUM1 012337Z 31008KT 10/M13 A3033 RMK A01 T00991130  RH  019%=      5-min Rain = 0
KUM1 012338Z 32006KT 10/M13 A3033 RMK A01 T00991131  RH  018%=      5-min Rain = 0
KUM1 012339Z 30006KT 10/M13 A3033 RMK A01 T00991132  RH  018%=      5-min Rain = 0
KUM1 012340Z 32007KT 10/M14 A3033 RMK A01 T00981135  RH  018%=      5-min Rain = 0
KUM1 012341Z 32006KT 10/M14 A3033 RMK A01 T00971137  RH  018%=      5-min Rain = 0
KUM1 012342Z 30004KT 10/M14 A3033 RMK A01 T00961138  RH  018%=      5-min Rain = 0
KUM1 012343Z 31006KT 10/M14 A3033 RMK A01 T00961138  RH  018%=      5-min Rain = 0
KUM1 012344Z 31007KT 10/M14 A3033 RMK A01 T00971136  RH  018%=      5-min Rain = 0
KUM1 012345Z 29007KT 10/M14 A3033 RMK A01 T00981135  RH  018%=      5-min Rain = 0
KUM1 012346Z 28006KT 10/M14 A3033 RMK A01 T00971135  RH  018%=      5-min Rain = 0
KUM1 012347Z 28005KT 10/M14 A3033 RMK A01 T00961136  RH  018%=      5-min Rain = 0
KUM1 012348Z 28005KT 10/M14 A3033 RMK A01 T00961136  RH  018%=      5-min Rain = 0
KUM1 012349Z 27005KT 10/M14 A3033 RMK A01 T00961135  RH  018%=      5-min Rain = 0
KUM1 012350Z 29004KT 10/M14 A3033 RMK A01 T00961136  RH  018%=      5-min Rain = 0
KUM1 012351Z 31006KT 10/M14 A3033 RMK A01 T00961136  RH  018%=      5-min Rain = 0
KUM1 012352Z 31005KT 10/M14 A3033 RMK A01 T00961137  RH  018%=      5-min Rain = 0
KUM1 012353Z 30005KT 10/M14 A3033 RMK A01 T00961137  RH  018%=      5-min Rain = 0
KUM1 012354Z 30005KT 10/M14 A3033 RMK A01 T00961137  RH  018%=      5-min Rain = 0
KUM1 012355Z 31006KT 10/M14 A3033 RMK A01 T00961137  RH  018%=      5-min Rain = 0
KUM1 012356Z 31007KT 10/M14 A3033 RMK A01 T00951137  RH  018%=      5-min Rain = 0
KUM1 012357Z 32007KT 10/M14 A3033 RMK A01 T00951136  RH  018%=      5-min Rain = 0
KUM1 012358Z 31007KT 10/M14 A3033 RMK A01 T00951136  RH  018%=      5-min Rain = 0
KUM1 012359Z 31008KT 10/M14 A3033 RMK A01 T00951136  RH  018%=      5-min Rain = 0
KUM1 020000Z 30008KT 10/M14 A3033 RMK A01 T00951137  RH  018%=      5-min Rain = 0
KUM1 020001Z 30007KT 10/M14 A3033 RMK A01 T00951137  RH  018%=      5-min Rain = 0
KUM1 020002Z 30008KT 09/M14 A3033 RMK A01 T00941137  RH  018%=      5-min Rain = 0
KUM1 020003Z 30006KT 09/M14 A3033 RMK A01 T00941137  RH  018%=      5-min Rain = 0
KUM1 020004Z 29005KT 09/M14 A3033 RMK A01 T00931138  RH  018%=      5-min Rain = 0
KUM1 020005Z 28004KT 09/M14 A3033 RMK A01 T00931138  RH  018%=      5-min Rain = 0
KUM1 020006Z 29004KT 09/M14 A3033 RMK A01 T00931138  RH  018%=      5-min Rain = 0
KUM1 020007Z 31005KT 09/M14 A3033 RMK A01 T00931138  RH  018%=      5-min Rain = 0
KUM1 020008Z 31005KT 09/M14 A3033 RMK A01 T00931138  RH  018%=      5-min Rain = 0
KUM1 020009Z 31005KT 09/M14 A3033 RMK A01 T00931137  RH  018%=      5-min Rain = 0
KUM1 020010Z 31004KT 09/M14 A3033 RMK A01 T00931137  RH  018%=      5-min Rain = 0
KUM1 020011Z 31004KT 09/M14 A3033 RMK A01 T00921137  RH  018%=      5-min Rain = 0
KUM1 020012Z 30004KT 09/M14 A3033 RMK A01 T00911138  RH  018%=      5-min Rain = 0
KUM1 020013Z 30004KT 09/M14 A3033 RMK A01 T00911138  RH  018%=      5-min Rain = 0
KUM1 020014Z 30004KT 09/M14 A3033 RMK A01 T00911136  RH  019%=      5-min Rain = 0
KUM1 020015Z 30004KT 09/M14 A3033 RMK A01 T00901135  RH  019%=      5-min Rain = 0
KUM1 020016Z 30004KT 09/M13 A3033 RMK A01 T00891134  RH  019%=      5-min Rain = 0
KUM1 020017Z 30005KT 09/M14 A3033 RMK A01 T00881135  RH  019%=      5-min Rain = 0
KUM1 020018Z 29004KT 09/M14 A3033 RMK A01 T00871137  RH  019%=      5-min Rain = 0
KUM1 020019Z 29003KT 09/M14 A3033 RMK A01 T00871138  RH  019%=      5-min Rain = 0
KUM1 020020Z 28004KT 09/M14 A3033 RMK A01 T00881138  RH  019%=      5-min Rain = 0
KUM1 020021Z 29004KT 09/M14 A3033 RMK A01 T00881138  RH  019%=      5-min Rain = 0
KUM1 020022Z 30003KT 09/M14 A3033 RMK A01 T00871138  RH  019%=      5-min Rain = 0
KUM1 020023Z 30003KT 09/M14 A3033 RMK A01 T00861139  RH  019%=      5-min Rain = 0
KUM1 020024Z 30003KT 09/M14 A3033 RMK A01 T00851140  RH  019%=      5-min Rain = 0
KUM1 020025Z 29003KT 08/M14 A3033 RMK A01 T00841139  RH  019%=      5-min Rain = 0
KUM1 020026Z 29003KT 08/M14 A3033 RMK A01 T00831138  RH  019%=      5-min Rain = 0
KUM1 020027Z 29003KT 08/M14 A3033 RMK A01 T00821139  RH  019%=      5-min Rain = 0
KUM1 020028Z 29003KT 08/M14 A3033 RMK A01 T00811138  RH  020%=      5-min Rain = 0
KUM1 020029Z 29004KT 08/M14 A3033 RMK A01 T00811138  RH  020%=      5-min Rain = 0
KUM1 020030Z 29003KT 08/M14 A3033 RMK A01 T00801138  RH  020%=      5-min Rain = 0
KUM1 020031Z 29003KT 08/M14 A3033 RMK A01 T00791139  RH  020%=      5-min Rain = 0
KUM1 020032Z 29003KT 08/M14 A3033 RMK A01 T00781139  RH  020%=      5-min Rain = 0
KUM1 020033Z 30003KT 08/M14 A3033 RMK A01 T00781139  RH  020%=      5-min Rain = 0
KUM1 020034Z 30003KT 08/M14 A3033 RMK A01 T00771141  RH  020%=      5-min Rain = 0
KUM1 020035Z 30003KT 08/M14 A3033 RMK A01 T00761144  RH  019%=      5-min Rain = 0
KUM1 020036Z 30003KT 08/M14 A3033 RMK A01 T00751142  RH  020%=      5-min Rain = 0
KUM1 020037Z 31003KT 07/M14 A3033 RMK A01 T00741141  RH  020%=      5-min Rain = 0
KUM1 020038Z 30003KT 07/M14 A3033 RMK A01 T00741142  RH  020%=      5-min Rain = 0
KUM1 020039Z 30003KT 07/M14 A3033 RMK A01 T00731143  RH  020%=      5-min Rain = 0
KUM1 020040Z 31003KT 07/M14 A3033 RMK A01 T00721141  RH  020%=      5-min Rain = 0
KUM1 020041Z 30004KT 07/M14 A3033 RMK A01 T00711140  RH  021%=      5-min Rain = 0
KUM1 020042Z 31004KT 07/M14 A3033 RMK A01 T00701140  RH  021%=      5-min Rain = 0
KUM1 020043Z 31004KT 07/M14 A3033 RMK A01 T00691138  RH  021%=      5-min Rain = 0
KUM1 020044Z 30004KT 07/M14 A3033 RMK A01 T00681139  RH  021%=      5-min Rain = 0
KUM1 020045Z 30004KT 07/M14 A3033 RMK A01 T00661140  RH  021%=      5-min Rain = 0
KUM1 020046Z 30005KT 07/M14 A3033 RMK A01 T00651141  RH  021%=      5-min Rain = 0
KUM1 020047Z 30005KT 06/M14 A3033 RMK A01 T00631142  RH  021%=      5-min Rain = 0
KUM1 020048Z 30004KT 06/M14 A3033 RMK A01 T00611143  RH  022%=      5-min Rain = 0
KUM1 020049Z 30004KT 06/M14 A3033 RMK A01 T00601141  RH  022%=      5-min Rain = 0
KUM1 020050Z 30004KT 06/M14 A3033 RMK A01 T00591140  RH  022%=      5-min Rain = 0
KUM1 020051Z 30004KT 06/M14 A3033 RMK A01 T00581140  RH  023%=      5-min Rain = 0
KUM1 020052Z 30004KT 06/M14 A3033 RMK A01 T00581138  RH  023%=      5-min Rain = 0
KUM1 020053Z 30004KT 06/M14 A3033 RMK A01 T00571139  RH  023%=      5-min Rain = 0
KUM1 020054Z 30004KT 06/M14 A3033 RMK A01 T00561141  RH  023%=      5-min Rain = 0
KUM1 020055Z 30004KT 06/M14 A3033 RMK A01 T00551141  RH  023%=      5-min Rain = 0
KUM1 020056Z 31004KT 06/M14 A3033 RMK A01 T00551139  RH  023%=      5-min Rain = 0
KUM1 020057Z 31004KT 06/M14 A3033 RMK A01 T00551141  RH  023%=      5-min Rain = 0
KUM1 020058Z 31004KT 06/M14 A3033 RMK A01 T00551143  RH  023%=      5-min Rain = 0
KUM1 020059Z 31004KT 05/M14 A3033 RMK A01 T00541142  RH  023%=      5-min Rain = 0
KUM1 020100Z 31004KT 06/M14 A3033 RMK A01 T00551139  RH  023%=      5-min Rain = 0
KUM1 020101Z 31004KT 06/M14 A3033 RMK A01 T00571137  RH  023%=      5-min Rain = 0
KUM1 020102Z 31004KT 06/M14 A3033 RMK A01 T00591135  RH  023%=      5-min Rain = 0
KUM1 020103Z 31004KT 06/M14 A3033 RMK A01 T00601136  RH  023%=      5-min Rain = 0
KUM1 020104Z 31004KT 06/M14 A3033 RMK A01 T00591137  RH  023%=      5-min Rain = 0
KUM1 020105Z 31004KT 06/M14 A3033 RMK A01 T00571139  RH  023%=      5-min Rain = 0
KUM1 020106Z 31004KT 06/M14 A3033 RMK A01 T00551141  RH  023%=      5-min Rain = 0
KUM1 020107Z 31004KT 05/M14 A3033 RMK A01 T00531141  RH  023%=      5-min Rain = 0
KUM1 020108Z 31003KT 05/M14 A3033 RMK A01 T00521141  RH  023%=      5-min Rain = 0
KUM1 020109Z 31003KT 05/M14 A3033 RMK A01 T00511140  RH  024%=      5-min Rain = 0
KUM1 020110Z 31003KT 05/M14 A3033 RMK A01 T00511140  RH  024%=      5-min Rain = 0
KUM1 020111Z 31003KT 05/M14 A3033 RMK A01 T00511139  RH  024%=      5-min Rain = 0
KUM1 020112Z 31003KT 05/M14 A3033 RMK A01 T00511138  RH  024%=      5-min Rain = 0
KUM1 020113Z 31003KT 05/M14 A3033 RMK A01 T00501140  RH  024%=      5-min Rain = 0
KUM1 020114Z 31003KT 05/M14 A3033 RMK A01 T00501138  RH  024%=      5-min Rain = 0
KUM1 020115Z 31003KT 05/M14 A3033 RMK A01 T00511136  RH  024%=      5-min Rain = 0
KUM1 020116Z 31003KT 05/M14 A3033 RMK A01 T00531136  RH  024%=      5-min Rain = 0
KUM1 020117Z 31003KT 05/M14 A3033 RMK A01 T00521137  RH  024%=      5-min Rain = 0
KUM1 020118Z 31003KT 05/M14 A3033 RMK A01 T00501139  RH  024%=      5-min Rain = 0
KUM1 020119Z 31004KT 05/M14 A3033 RMK A01 T00501138  RH  024%=      5-min Rain = 0
KUM1 020120Z 31003KT 05/M14 A3033 RMK A01 T00521136  RH  024%=      5-min Rain = 0
KUM1 020121Z 31003KT 05/M14 A3033 RMK A01 T00531136  RH  024%=      5-min Rain = 0
KUM1 020122Z 31003KT 05/M14 A3033 RMK A01 T00531136  RH  024%=      5-min Rain = 0
KUM1 020123Z 31003KT 05/M14 A3033 RMK A01 T00531137  RH  024%=      5-min Rain = 0
KUM1 020124Z 31004KT 05/M14 A3033 RMK A01 T00541139  RH  023%=      5-min Rain = 0
KUM1 020125Z 31004KT 05/M14 A3033 RMK A01 T00501143  RH  023%=      5-min Rain = 0
KUM1 020126Z 31004KT 05/M14 A3033 RMK A01 T00481141  RH  024%=      5-min Rain = 0
KUM1 020127Z 31004KT 05/M14 A3033 RMK A01 T00451143  RH  024%=      5-min Rain = 0
KUM1 020128Z 31004KT 04/M14 A3033 RMK A01 T00441143  RH  024%=      5-min Rain = 0
KUM1 020129Z 31003KT 04/M14 A3033 RMK A01 T00431142  RH  025%=      5-min Rain = 0
KUM1 020130Z 31003KT 04/M14 A3033 RMK A01 T00431141  RH  025%=      5-min Rain = 0
KUM1 020131Z 31004KT 05/M14 A3033 RMK A01 T00451140  RH  025%=      5-min Rain = 0
KUM1 020132Z 30004KT 05/M14 A3033 RMK A01 T00451141  RH  025%=      5-min Rain = 0
KUM1 020133Z 30004KT 04/M15 A3033 RMK A01 T00391150  RH  024%=      5-min Rain = 0
KUM1 020134Z 30004KT 03/M16 A3033 RMK A01 T00311160  RH  023%=      5-min Rain = 0
KUM1 020135Z 30004KT 03/M16 A3033 RMK A01 T00271156  RH  025%=      5-min Rain = 0
KUM1 020136Z 30004KT 03/M14 A3033 RMK A01 T00331144  RH  026%=      5-min Rain = 0
KUM1 020137Z 30003KT 04/M14 A3033 RMK A01 T00391138  RH  026%=      5-min Rain = 0
KUM1 020138Z 30003KT 04/M14 A3033 RMK A01 T00431138  RH  025%=      5-min Rain = 0
KUM1 020139Z 30003KT 04/M14 A3033 RMK A01 T00421142  RH  025%=      5-min Rain = 0
KUM1 020140Z 30003KT 04/M14 A3033 RMK A01 T00421141  RH  025%=      5-min Rain = 0
KUM1 020141Z 30002KT 04/M14 A3033 RMK A01 T00421141  RH  025%=      5-min Rain = 0
KUM1 020142Z 30002KT 04/M14 A3033 RMK A01 T00421141  RH  025%=      5-min Rain = 0
KUM1 020143Z 30002KT 04/M14 A3033 RMK A01 T00401142  RH  025%=      5-min Rain = 0
KUM1 020144Z 31002KT 04/M14 A3033 RMK A01 T00391140  RH  026%=      5-min Rain = 0
KUM1 020145Z 31002KT 04/M14 A3033 RMK A01 T00391139  RH  026%=      5-min Rain = 0
KUM1 020146Z 31002KT 04/M14 A3033 RMK A01 T00411138  RH  026%=      5-min Rain = 0
KUM1 020147Z 31002KT 04/M14 A3033 RMK A01 T00421138  RH  026%=      5-min Rain = 0
KUM1 020148Z 31002KT 04/M14 A3033 RMK A01 T00431139  RH  025%=      5-min Rain = 0
KUM1 020149Z 31002KT 04/M14 A3033 RMK A01 T00411141  RH  025%=      5-min Rain = 0
KUM1 020150Z 31002KT 04/M14 A3033 RMK A01 T00411141  RH  025%=      5-min Rain = 0
KUM1 020151Z 30002KT 04/M14 A3033 RMK A01 T00391142  RH  025%=      5-min Rain = 0
KUM1 020152Z 29003KT 04/M14 A3033 RMK A01 T00381142  RH  026%=      5-min Rain = 0
KUM1 020153Z 29003KT 04/M14 A3033 RMK A01 T00371142  RH  026%=      5-min Rain = 0
KUM1 020154Z 28003KT 04/M14 A3033 RMK A01 T00361141  RH  026%=      5-min Rain = 0
KUM1 020155Z 28003KT 04/M14 A3033 RMK A01 T00371140  RH  026%=      5-min Rain = 0
KUM1 020156Z 28003KT 04/M14 A3033 RMK A01 T00371141  RH  026%=      5-min Rain = 0
KUM1 020157Z 28003KT 03/M15 A3033 RMK A01 T00341145  RH  026%=      5-min Rain = 0
KUM1 020158Z 28002KT 03/M14 A3033 RMK A01 T00331141  RH  027%=      5-min Rain = 0
KUM1 020159Z 28002KT 04/M14 A3033 RMK A01 T00351137  RH  027%=      5-min Rain = 0
KUM1 020200Z 28002KT 04/M14 A3033 RMK A01 T00371135  RH  027%=      5-min Rain = 0
KUM1 020201Z 28003KT 04/M14 A3033 RMK A01 T00371135  RH  027%=      5-min Rain = 0
KUM1 020202Z 28002KT 04/M14 A3033 RMK A01 T00361138  RH  027%=      5-min Rain = 0
KUM1 020203Z 28002KT 03/M15 A3033 RMK A01 T00311150  RH  025%=      5-min Rain = 0
KUM1 020204Z 28002KT 03/M15 A3033 RMK A01 T00281150  RH  026%=      5-min Rain = 0
KUM1 020205Z 28002KT 03/M15 A3033 RMK A01 T00271146  RH  027%=      5-min Rain = 0
KUM1 020206Z 28002KT 03/M15 A3033 RMK A01 T00261148  RH  026%=      5-min Rain = 0
KUM1 020207Z 28001KT 03/M15 A3033 RMK A01 T00251147  RH  027%=      5-min Rain = 0
KUM1 020208Z 28001KT 02/M14 A3033 RMK A01 T00241144  RH  028%=      5-min Rain = 0
KUM1 020209Z 28001KT 03/M14 A3033 RMK A01 T00261139  RH  028%=      5-min Rain = 0
KUM1 020210Z 28001KT 03/M14 A3033 RMK A01 T00281140  RH  028%=      5-min Rain = 0
KUM1 020211Z 28002KT 03/M14 A3033 RMK A01 T00281144  RH  027%=      5-min Rain = 0
KUM1 020212Z 27002KT 03/M14 A3033 RMK A01 T00271143  RH  027%=      5-min Rain = 0
KUM1 020213Z 27002KT 03/M14 A3033 RMK A01 T00261142  RH  028%=      5-min Rain = 0
KUM1 020214Z 24003KT 02/M15 A3033 RMK A01 T00231145  RH  028%=      5-min Rain = 0
KUM1 020215Z 24003KT 02/M14 A3033 RMK A01 T00231143  RH  028%=      5-min Rain = 0
KUM1 020216Z 23003KT 02/M15 A3033 RMK A01 T00231145  RH  028%=      5-min Rain = 0
KUM1 020217Z 23003KT 02/M14 A3033 RMK A01 T00221144  RH  028%=      5-min Rain = 0
KUM1 020218Z 23004KT 02/M15 A3033 RMK A01 T00211145  RH  028%=      5-min Rain = 0
KUM1 020219Z 23004KT 02/M14 A3033 RMK A01 T00211144  RH  028%=      5-min Rain = 0
KUM1 020220Z 23004KT 02/M14 A3033 RMK A01 T00201144  RH  029%=      5-min Rain = 0
KUM1 020221Z 23004KT 02/M15 A3033 RMK A01 T00201145  RH  028%=      5-min Rain = 0
KUM1 020222Z 23004KT 02/M15 A3033 RMK A01 T00181146  RH  028%=      5-min Rain = 0
KUM1 020223Z 23004KT 02/M15 A3033 RMK A01 T00151149  RH  028%=      5-min Rain = 0
KUM1 020224Z 23004KT 01/M15 A3033 RMK A01 T00141148  RH  029%=      5-min Rain = 0
KUM1 020225Z 23004KT 01/M15 A3033 RMK A01 T00141145  RH  029%=      5-min Rain = 0
KUM1 020226Z 23004KT 02/M14 A3033 RMK A01 T00151144  RH  030%=      5-min Rain = 0
KUM1 020227Z 23003KT 02/M14 A3033 RMK A01 T00161144  RH  029%=      5-min Rain = 0
KUM1 020228Z 23004KT 02/M14 A3033 RMK A01 T00161144  RH  030%=      5-min Rain = 0
KUM1 020229Z 23003KT 02/M14 A3033 RMK A01 T00161143  RH  030%=      5-min Rain = 0
KUM1 020230Z 23003KT 02/M14 A3033 RMK A01 T00161144  RH  029%=      5-min Rain = 0
KUM1 020231Z 23003KT 02/M14 A3033 RMK A01 T00151143  RH  030%=      5-min Rain = 0
KUM1 020232Z 23003KT 02/M14 A3033 RMK A01 T00161142  RH  030%=      5-min Rain = 0
KUM1 020233Z 23003KT 02/M14 A3033 RMK A01 T00171144  RH  029%=      5-min Rain = 0
KUM1 020234Z 23003KT 02/M15 A3033 RMK A01 T00171146  RH  029%=      5-min Rain = 0
KUM1 020235Z 23003KT 02/M14 A3033 RMK A01 T00171143  RH  029%=      5-min Rain = 0
KUM1 020236Z 23003KT 02/M14 A3033 RMK A01 T00191141  RH  030%=      5-min Rain = 0
KUM1 020237Z 23003KT 02/M14 A3033 RMK A01 T00191141  RH  029%=      5-min Rain = 0
KUM1 020238Z 23003KT 02/M14 A3033 RMK A01 T00191143  RH  029%=      5-min Rain = 0
KUM1 020239Z 23003KT 02/M14 A3033 RMK A01 T00181144  RH  029%=      5-min Rain = 0
KUM1 020240Z 23003KT 02/M14 A3033 RMK A01 T00171143  RH  029%=      5-min Rain = 0
KUM1 020241Z 23003KT 02/M14 A3033 RMK A01 T00171143  RH  029%=      5-min Rain = 0
KUM1 020242Z 23003KT 02/M14 A3033 RMK A01 T00171142  RH  030%=      5-min Rain = 0
KUM1 020243Z 23003KT 02/M14 A3033 RMK A01 T00161142  RH  030%=      5-min Rain = 0
KUM1 020244Z 23003KT 02/M14 A3033 RMK A01 T00181139  RH  030%=      5-min Rain = 0
KUM1 020245Z 23003KT 02/M14 A3033 RMK A01 T00201139  RH  030%=      5-min Rain = 0
KUM1 020246Z 23003KT 02/M14 A3033 RMK A01 T00211140  RH  029%=      5-min Rain = 0
KUM1 020247Z 23003KT 02/M14 A3033 RMK A01 T00211142  RH  029%=      5-min Rain = 0
KUM1 020248Z 23003KT 02/M14 A3033 RMK A01 T00201142  RH  029%=      5-min Rain = 0
KUM1 020249Z 23004KT 02/M14 A3033 RMK A01 T00191144  RH  029%=      5-min Rain = 0
KUM1 020250Z 23006KT 02/M14 A3033 RMK A01 T00171144  RH  029%=      5-min Rain = 0
KUM1 020251Z 22006KT 02/M15 A3033 RMK A01 T00151148  RH  029%=      5-min Rain = 0
KUM1 020252Z 22005KT 01/M15 A3033 RMK A01 T00121149  RH  029%=      5-min Rain = 0
KUM1 020253Z 22005KT 01/M15 A3033 RMK A01 T00131146  RH  029%=      5-min Rain = 0
KUM1 020254Z 22005KT 01/M15 A3033 RMK A01 T00131146  RH  030%=      5-min Rain = 0
KUM1 020255Z 22005KT 02/M14 A3033 RMK A01 T00161140  RH  030%=      5-min Rain = 0
KUM1 020256Z 22005KT 02/M14 A3033 RMK A01 T00201138  RH  030%=      5-min Rain = 0
KUM1 020257Z 22005KT 02/M14 A3033 RMK A01 T00201140  RH  029%=      5-min Rain = 0
KUM1 020258Z 22004KT 02/M14 A3033 RMK A01 T00181143  RH  029%=      5-min Rain = 0
KUM1 020259Z 22005KT 02/M14 A3033 RMK A01 T00171141  RH  030%=      5-min Rain = 0
KUM1 020300Z 22005KT 02/M14 A3033 RMK A01 T00191139  RH  030%=      5-min Rain = 0
KUM1 020301Z 22005KT 02/M14 A3033 RMK A01 T00201140  RH  029%=      5-min Rain = 0
KUM1 020302Z 22005KT 02/M14 A3033 RMK A01 T00171143  RH  029%=      5-min Rain = 0
KUM1 020303Z 22005KT 02/M14 A3033 RMK A01 T00171141  RH  030%=      5-min Rain = 0
KUM1 020304Z 21005KT 02/M14 A3033 RMK A01 T00171141  RH  030%=      5-min Rain = 0
KUM1 020305Z 21005KT 02/M14 A3033 RMK A01 T00181139  RH  030%=      5-min Rain = 0
KUM1 020306Z 21005KT 02/M14 A3033 RMK A01 T00201137  RH  030%=      5-min Rain = 0
KUM1 020307Z 21005KT 02/M14 A3033 RMK A01 T00211138  RH  030%=      5-min Rain = 0
KUM1 020308Z 21005KT 02/M14 A3033 RMK A01 T00201140  RH  029%=      5-min Rain = 0
KUM1 020309Z 21005KT 02/M14 A3033 RMK A01 T00181141  RH  030%=      5-min Rain = 0
KUM1 020310Z 20005KT 02/M14 A3033 RMK A01 T00181140  RH  030%=      5-min Rain = 0
KUM1 020311Z 20005KT 02/M14 A3033 RMK A01 T00181140  RH  030%=      5-min Rain = 0
KUM1 020312Z 20005KT 02/M14 A3033 RMK A01 T00181139  RH  030%=      5-min Rain = 0
KUM1 020313Z 20005KT 02/M14 A3033 RMK A01 T00181139  RH  030%=      5-min Rain = 0
KUM1 020314Z 20005KT 02/M14 A3033 RMK A01 T00181138  RH  030%=      5-min Rain = 0
KUM1 020315Z 20005KT 02/M14 A3033 RMK A01 T00191138  RH  030%=      5-min Rain = 0
KUM1 020316Z 20005KT 02/M14 A3033 RMK A01 T00191138  RH  030%=      5-min Rain = 0
KUM1 020317Z 20005KT 02/M14 A3033 RMK A01 T00191139  RH  030%=      5-min Rain = 0
KUM1 020318Z 20005KT 02/M14 A3033 RMK A01 T00181139  RH  030%=      5-min Rain = 0
KUM1 020319Z 20005KT 02/M14 A3033 RMK A01 T00161140  RH  030%=      5-min Rain = 0
KUM1 020320Z 20005KT 02/M14 A3033 RMK A01 T00151141  RH  030%=      5-min Rain = 0
KUM1 020321Z 20005KT 01/M14 A3033 RMK A01 T00141140  RH  031%=      5-min Rain = 0
KUM1 020322Z 20005KT 01/M14 A3033 RMK A01 T00141141  RH  031%=      5-min Rain = 0
KUM1 020323Z 20005KT 01/M14 A3033 RMK A01 T00121141  RH  031%=      5-min Rain = 0
KUM1 020324Z 19005KT 01/M14 A3033 RMK A01 T00111140  RH  031%=      5-min Rain = 0
KUM1 020325Z 19005KT 01/M14 A3033 RMK A01 T00111140  RH  032%=      5-min Rain = 0
KUM1 020326Z 19005KT 01/M14 A3033 RMK A01 T00121137  RH  032%=      5-min Rain = 0
KUM1 020327Z 19005KT 01/M14 A3033 RMK A01 T00131137  RH  032%=      5-min Rain = 0
KUM1 020328Z 19005KT 01/M14 A3033 RMK A01 T00141137  RH  032%=      5-min Rain = 0
KUM1 020329Z 19005KT 01/M14 A3033 RMK A01 T00131138  RH  031%=      5-min Rain = 0
KUM1 020330Z 19005KT 01/M14 A3033 RMK A01 T00111140  RH  031%=      5-min Rain = 0
KUM1 020331Z 20005KT 01/M14 A3033 RMK A01 T00091141  RH  032%=      5-min Rain = 0
KUM1 020332Z 19005KT 01/M14 A3033 RMK A01 T00081140  RH  032%=      5-min Rain = 0
KUM1 020333Z 19005KT 01/M14 A3033 RMK A01 T00091139  RH  032%=      5-min Rain = 0
KUM1 020334Z 19005KT 01/M14 A3033 RMK A01 T00091138  RH  032%=      5-min Rain = 0
KUM1 020335Z 19005KT 01/M14 A3033 RMK A01 T00101137  RH  032%=      5-min Rain = 0
KUM1 020336Z 19005KT 01/M14 A3033 RMK A01 T00111137  RH  032%=      5-min Rain = 0
KUM1 020337Z 19005KT 01/M14 A3033 RMK A01 T00121138  RH  032%=      5-min Rain = 0
KUM1 020338Z 19005KT 01/M14 A3033 RMK A01 T00121138  RH  032%=      5-min Rain = 0
KUM1 020339Z 19005KT 01/M14 A3033 RMK A01 T00111139  RH  032%=      5-min Rain = 0
KUM1 020340Z 19005KT 01/M14 A3033 RMK A01 T00091141  RH  032%=      5-min Rain = 0
KUM1 020341Z 19005KT 01/M14 A3033 RMK A01 T00071142  RH  032%=      5-min Rain = 0
KUM1 020342Z 19006KT 01/M14 A3033 RMK A01 T00061143  RH  032%=      5-min Rain = 0
KUM1 020343Z 19006KT 00/M14 A3033 RMK A01 T00041143  RH  032%=      5-min Rain = 0
KUM1 020344Z 19006KT 00/M14 A3033 RMK A01 T00031143  RH  033%=      5-min Rain = 0
KUM1 020345Z 20006KT 00/M14 A3033 RMK A01 T00021142  RH  033%=      5-min Rain = 0
KUM1 020346Z 19006KT 00/M14 A3033 RMK A01 T00011142  RH  033%=      5-min Rain = 0
KUM1 020347Z 19006KT 00/M14 A3033 RMK A01 T00011141  RH  034%=      5-min Rain = 0
KUM1 020348Z 19006KT 00/14 A3033 RMK A01 T00000-141  RH  034%=      5-min Rain = 0
KUM1 020349Z 20006KT 00/14 A3033 RMK A01 T00000-141  RH  034%=      5-min Rain = 0
KUM1 020350Z 20006KT 00/14 A3033 RMK A01 T00000-141  RH  034%=      5-min Rain = 0
KUM1 020351Z 20006KT 00/M14 A3033 RMK A01 T00011141  RH  034%=      5-min Rain = 0
KUM1 020352Z 20006KT 00/M14 A3033 RMK A01 T00011140  RH  034%=      5-min Rain = 0
KUM1 020353Z 20006KT 00/M14 A3033 RMK A01 T00041138  RH  034%=      5-min Rain = 0
KUM1 020354Z 20006KT 01/M14 A3033 RMK A01 T00051138  RH  033%=      5-min Rain = 0
KUM1 020355Z 21006KT 01/M14 A3033 RMK A01 T00051139  RH  033%=      5-min Rain = 0
KUM1 020356Z 21007KT 01/M14 A3033 RMK A01 T00051141  RH  033%=      5-min Rain = 0
KUM1 020357Z 21007KT 01/M14 A3033 RMK A01 T00061142  RH  032%=      5-min Rain = 0
KUM1 020358Z 21007KT 01/M14 A3033 RMK A01 T00061144  RH  032%=      5-min Rain = 0
KUM1 020359Z 21007KT 01/M15 A3033 RMK A01 T00051145  RH  031%=      5-min Rain = 0
KUM1 020400Z 22006KT 01/M15 A3033 RMK A01 T00051146  RH  031%=      5-min Rain = 0
KUM1 020401Z 22006KT 01/M15 A3033 RMK A01 T00051146  RH  031%=      5-min Rain = 0
KUM1 020402Z 22006KT 00/M15 A3033 RMK A01 T00041146  RH  031%=      5-min Rain = 0
KUM1 020403Z 22006KT 00/M15 A3033 RMK A01 T00041147  RH  031%=      5-min Rain = 0
KUM1 020404Z 22006KT 00/M15 A3033 RMK A01 T00031148  RH  031%=      5-min Rain = 0
KUM1 020405Z 22005KT 00/M15 A3033 RMK A01 T00021147  RH  032%=      5-min Rain = 0
KUM1 020406Z 22005KT M00/M15 A3033 RMK A01 T10011150  RH  031%=      5-min Rain = 0
KUM1 020407Z 23004KT M01/M16 A3033 RMK A01 T10101160  RH  031%=      5-min Rain = 0
KUM1 020408Z 22003KT M02/M16 A3033 RMK A01 T10181159  RH  033%=      5-min Rain = 0
KUM1 020409Z 23000KT M02/M16 A3033 RMK A01 T10231155  RH  036%=      5-min Rain = 0
KUM1 020410Z 00000KT M03/M15 A3033 RMK A01 T10251153  RH  037%=      5-min Rain = 0
KUM1 020411Z 14001KT M03/M15 A3033 RMK A01 T10251152  RH  037%=      5-min Rain = 0
KUM1 020412Z 13006KT M03/M15 A3034 RMK A01 T10271153  RH  037%=      5-min Rain = 0
KUM1 020413Z 13004KT M03/M16 A3034 RMK A01 T10301155  RH  038%=      5-min Rain = 0
KUM1 020414Z 16003KT M03/M15 A3033 RMK A01 T10311153  RH  038%=      5-min Rain = 0
KUM1 020415Z 18003KT M03/M15 A3033 RMK A01 T10271145  RH  040%=      5-min Rain = 0
KUM1 020416Z 18003KT M02/M14 A3033 RMK A01 T10241143  RH  040%=      5-min Rain = 0
KUM1 020417Z 17004KT M02/M14 A3033 RMK A01 T10231144  RH  039%=      5-min Rain = 0
KUM1 020418Z 17003KT M02/M15 A3033 RMK A01 T10221146  RH  038%=      5-min Rain = 0
KUM1 020419Z 18003KT M02/M15 A3033 RMK A01 T10221147  RH  038%=      5-min Rain = 0
KUM1 020420Z 19004KT M02/M15 A3033 RMK A01 T10211146  RH  038%=      5-min Rain = 0
KUM1 020421Z 19004KT M02/M15 A3033 RMK A01 T10211146  RH  038%=      5-min Rain = 0
KUM1 020422Z 18004KT M02/M15 A3033 RMK A01 T10201146  RH  037%=      5-min Rain = 0
KUM1 020423Z 18005KT M02/M15 A3033 RMK A01 T10201148  RH  037%=      5-min Rain = 0
KUM1 020424Z 18005KT M02/M15 A3033 RMK A01 T10211149  RH  037%=      5-min Rain = 0
KUM1 020425Z 18005KT M02/M15 A3033 RMK A01 T10231150  RH  037%=      5-min Rain = 0
KUM1 020426Z 18005KT M02/M15 A3033 RMK A01 T10241148  RH  038%=      5-min Rain = 0
KUM1 020427Z 18005KT M03/M15 A3033 RMK A01 T10251147  RH  038%=      5-min Rain = 0
KUM1 020428Z 18004KT M03/M15 A3033 RMK A01 T10261147  RH  039%=      5-min Rain = 0
KUM1 020429Z 18004KT M03/M15 A3033 RMK A01 T10271147  RH  039%=      5-min Rain = 0
KUM1 020430Z 18004KT M03/M15 A3033 RMK A01 T10281149  RH  039%=      5-min Rain = 0
KUM1 020431Z 17004KT M03/M15 A3033 RMK A01 T10301152  RH  039%=      5-min Rain = 0
KUM1 020432Z 17004KT M03/M15 A3033 RMK A01 T10311154  RH  038%=      5-min Rain = 0
KUM1 020433Z 17004KT M03/M15 A3033 RMK A01 T10321153  RH  039%=      5-min Rain = 0
KUM1 020434Z 17004KT M03/M15 A3033 RMK A01 T10331152  RH  039%=      5-min Rain = 0
KUM1 020435Z 17005KT M03/M15 A3033 RMK A01 T10331150  RH  040%=      5-min Rain = 0
KUM1 020436Z 17005KT M03/M15 A3033 RMK A01 T10331146  RH  041%=      5-min Rain = 0
KUM1 020437Z 18005KT M03/M14 A3033 RMK A01 T10321144  RH  042%=      5-min Rain = 0
KUM1 020438Z 18005KT M03/M14 A3033 RMK A01 T10301143  RH  042%=      5-min Rain = 0
KUM1 020439Z 18006KT M03/M14 A3033 RMK A01 T10291142  RH  041%=      5-min Rain = 0
KUM1 020440Z 18006KT M03/M14 A3033 RMK A01 T10281142  RH  041%=      5-min Rain = 0
KUM1 020441Z 18006KT M03/M14 A3033 RMK A01 T10261140  RH  041%=      5-min Rain = 0
KUM1 020442Z 18006KT M03/M14 A3033 RMK A01 T10251139  RH  041%=      5-min Rain = 0
KUM1 020443Z 18006KT M02/M14 A3033 RMK A01 T10231138  RH  041%=      5-min Rain = 0
KUM1 020444Z 18006KT M02/M14 A3033 RMK A01 T10221138  RH  040%=      5-min Rain = 0
KUM1 020445Z 18006KT M02/M14 A3033 RMK A01 T10211141  RH  040%=      5-min Rain = 0
KUM1 020446Z 18006KT M02/M14 A3033 RMK A01 T10211141  RH  039%=      5-min Rain = 0
KUM1 020447Z 18006KT M02/M14 A3033 RMK A01 T10211141  RH  039%=      5-min Rain = 0
KUM1 020448Z 18006KT M02/M14 A3033 RMK A01 T10211142  RH  039%=      5-min Rain = 0
KUM1 020449Z 18006KT M02/M14 A3032 RMK A01 T10221143  RH  039%=      5-min Rain = 0
KUM1 020450Z 18007KT M02/M14 A3032 RMK A01 T10221143  RH  039%=      5-min Rain = 0
KUM1 020451Z 18007KT M02/M14 A3033 RMK A01 T10231144  RH  039%=      5-min Rain = 0
KUM1 020452Z 18007KT M02/M15 A3033 RMK A01 T10231146  RH  039%=      5-min Rain = 0
KUM1 020453Z 19007KT M02/M15 A3033 RMK A01 T10231145  RH  039%=      5-min Rain = 0
KUM1 020454Z 19007KT M02/M15 A3032 RMK A01 T10231146  RH  039%=      5-min Rain = 0
KUM1 020455Z 19007KT M02/M15 A3032 RMK A01 T10231146  RH  038%=      5-min Rain = 0
KUM1 020456Z 19008KT M02/M15 A3032 RMK A01 T10231146  RH  038%=      5-min Rain = 0
KUM1 020457Z 19009KT M02/M15 A3032 RMK A01 T10241146  RH  039%=      5-min Rain = 0
KUM1 020458Z 19009KT M03/M15 A3032 RMK A01 T10251146  RH  039%=      5-min Rain = 0
KUM1 020459Z 19009KT M03/M15 A3032 RMK A01 T10271148  RH  039%=      5-min Rain = 0
KUM1 020500Z 19008KT M03/M15 A3032 RMK A01 T10291148  RH  039%=      5-min Rain = 0
KUM1 020501Z 19008KT M03/M15 A3032 RMK A01 T10301149  RH  039%=      5-min Rain = 0
KUM1 020502Z 19008KT M03/M15 A3032 RMK A01 T10311149  RH  040%=      5-min Rain = 0
KUM1 020503Z 19008KT M03/M15 A3032 RMK A01 T10311149  RH  040%=      5-min Rain = 0
KUM1 020504Z 19008KT M03/M15 A3032 RMK A01 T10321150  RH  040%=      5-min Rain = 0
KUM1 020505Z 19008KT M03/M15 A3032 RMK A01 T10321150  RH  040%=      5-min Rain = 0
KUM1 020506Z 19007KT M03/M15 A3032 RMK A01 T10331151  RH  040%=      5-min Rain = 0
KUM1 020507Z 18007KT M03/M15 A3032 RMK A01 T10341152  RH  040%=      5-min Rain = 0
KUM1 020508Z 18007KT M04/M15 A3032 RMK A01 T10351153  RH  040%=      5-min Rain = 0
KUM1 020509Z 18007KT M04/M15 A3032 RMK A01 T10361154  RH  040%=      5-min Rain = 0
KUM1 020510Z 18008KT M04/M15 A3032 RMK A01 T10371154  RH  040%=      5-min Rain = 0
KUM1 020511Z 19007KT M04/M16 A3032 RMK A01 T10371155  RH  039%=      5-min Rain = 0
KUM1 020512Z 19007KT M04/M16 A3032 RMK A01 T10381156  RH  039%=      5-min Rain = 0
KUM1 020513Z 19007KT M04/M16 A3032 RMK A01 T10391155  RH  040%=      5-min Rain = 0
KUM1 020514Z 19007KT M04/M15 A3032 RMK A01 T10391154  RH  040%=      5-min Rain = 0
KUM1 020515Z 19007KT M04/M15 A3032 RMK A01 T10391152  RH  041%=      5-min Rain = 0
KUM1 020516Z 20007KT M04/M15 A3032 RMK A01 T10371148  RH  042%=      5-min Rain = 0
KUM1 020517Z 20007KT M04/M15 A3032 RMK A01 T10351146  RH  042%=      5-min Rain = 0
KUM1 020518Z 20007KT M03/M14 A3032 RMK A01 T10311142  RH  042%=      5-min Rain = 0
KUM1 020519Z 20007KT M03/M14 A3032 RMK A01 T10271140  RH  042%=      5-min Rain = 0
KUM1 020520Z 20007KT M03/M14 A3032 RMK A01 T10251139  RH  041%=      5-min Rain = 0
KUM1 020521Z 20008KT M02/M14 A3032 RMK A01 T10231139  RH  041%=      5-min Rain = 0
KUM1 020522Z 20008KT M02/M14 A3032 RMK A01 T10231140  RH  040%=      5-min Rain = 0
KUM1 020523Z 20008KT M03/M14 A3032 RMK A01 T10251144  RH  040%=      5-min Rain = 0
KUM1 020524Z 20009KT M03/M15 A3032 RMK A01 T10271146  RH  039%=      5-min Rain = 0
KUM1 020525Z 20009KT M03/M15 A3032 RMK A01 T10281147  RH  040%=      5-min Rain = 0
KUM1 020526Z 20010KT M03/M15 A3032 RMK A01 T10301148  RH  040%=      5-min Rain = 0
KUM1 020527Z 20009KT M03/M15 A3032 RMK A01 T10321149  RH  040%=      5-min Rain = 0
KUM1 020528Z 20009KT M03/M15 A3032 RMK A01 T10341149  RH  040%=      5-min Rain = 0
KUM1 020529Z 20010KT M03/M15 A3032 RMK A01 T10341148  RH  041%=      5-min Rain = 0
KUM1 020530Z 20009KT M03/M15 A3032 RMK A01 T10341147  RH  041%=      5-min Rain = 0
KUM1 020531Z 20010KT M03/M15 A3032 RMK A01 T10341146  RH  041%=      5-min Rain = 0
KUM1 020532Z 20010KT M03/M15 A3032 RMK A01 T10341146  RH  041%=      5-min Rain = 0
KUM1 020533Z 21009KT M03/M15 A3032 RMK A01 T10341146  RH  041%=      5-min Rain = 0
KUM1 020534Z 22008KT M03/M15 A3032 RMK A01 T10331145  RH  042%=      5-min Rain = 0
KUM1 020535Z 21008KT M03/M14 A3032 RMK A01 T10321143  RH  042%=      5-min Rain = 0
KUM1 020536Z 20009KT M03/M14 A3032 RMK A01 T10301141  RH  042%=      5-min Rain = 0
KUM1 020537Z 21009KT M03/M14 A3032 RMK A01 T10301142  RH  042%=      5-min Rain = 0
KUM1 020538Z 21009KT M03/M14 A3032 RMK A01 T10291142  RH  041%=      5-min Rain = 0
KUM1 020539Z 21009KT M03/M14 A3032 RMK A01 T10281141  RH  041%=      5-min Rain = 0
KUM1 020540Z 21009KT M03/M14 A3032 RMK A01 T10281142  RH  041%=      5-min Rain = 0
KUM1 020541Z 21009KT M03/M14 A3032 RMK A01 T10281142  RH  041%=      5-min Rain = 0
KUM1 020542Z 21010KT M03/M14 A3031 RMK A01 T10281142  RH  041%=      5-min Rain = 0
KUM1 020543Z 21009KT M03/M14 A3031 RMK A01 T10291143  RH  041%=      5-min Rain = 0
KUM1 020544Z 21009KT M03/M14 A3031 RMK A01 T10291143  RH  041%=      5-min Rain = 0
KUM1 020545Z 20009KT M03/M14 A3031 RMK A01 T10301143  RH  041%=      5-min Rain = 0
KUM1 020546Z 20009KT M03/M15 A3031 RMK A01 T10311145  RH  041%=      5-min Rain = 0
KUM1 020547Z 20009KT M03/M15 A3031 RMK A01 T10331146  RH  041%=      5-min Rain = 0
KUM1 020548Z 20008KT M03/M15 A3031 RMK A01 T10341147  RH  041%=      5-min Rain = 0
KUM1 020549Z 20008KT M03/M15 A3031 RMK A01 T10341146  RH  041%=      5-min Rain = 0
KUM1 020550Z 21008KT M03/M15 A3031 RMK A01 T10331145  RH  042%=      5-min Rain = 0
KUM1 020551Z 21008KT M03/M14 A3031 RMK A01 T10341144  RH  042%=      5-min Rain = 0
KUM1 020552Z 21009KT M03/M14 A3031 RMK A01 T10341143  RH  042%=      5-min Rain = 0
KUM1 020553Z 20009KT M03/M14 A3031 RMK A01 T10331142  RH  043%=      5-min Rain = 0
KUM1 020554Z 20009KT M03/M14 A3031 RMK A01 T10331142  RH  043%=      5-min Rain = 0
KUM1 020555Z 20009KT M03/M14 A3031 RMK A01 T10331141  RH  043%=      5-min Rain = 0
KUM1 020556Z 20008KT M03/M14 A3031 RMK A01 T10331142  RH  043%=      5-min Rain = 0
KUM1 020557Z 20009KT M03/M14 A3031 RMK A01 T10341142  RH  043%=      5-min Rain = 0
KUM1 020558Z 20009KT M03/M14 A3031 RMK A01 T10341142  RH  043%=      5-min Rain = 0
KUM1 020559Z 20009KT M03/M14 A3031 RMK A01 T10341141  RH  043%=      5-min Rain = 0

Page generated in 0.1823 seconds.